<?xml version="1.0" encoding="UTF-8" standalone="no" ?>
<gpx xmlns="http://www.topografix.com/GPX/1/1" xmlns:xsi="http://www.w3.org/2001/XMLSchema-instance" xsi:schemaLocation="http://www.topografix.com/GPX/1/1 http://www.topografix.com/GPX/1/1/gpx.xsd" version="1.1" creator="VisuGPX - https://www.visugpx.com">
  <metadata>
    <name>ccv_19juin11_80km</name>
    <desc><![CDATA[ccv_19juin11_80kmccv_19juin11_80kmccv_19juin11_80kmccv_19juin11_80kmccv_19juin11_80km]]></desc>
  </metadata>
  <trk>
    <name><![CDATA[Toaster Course]]></name>
    <trkseg>
      <trkpt lat="48.63441" lon="6.31319">
        <ele>206</ele>
        <time>2011-06-18T00:00:00Z</time>
      </trkpt>
      <trkpt lat="48.63443" lon="6.31313">
        <ele>205</ele>
        <time>2011-06-18T00:00:00Z</time>
      </trkpt>
      <trkpt lat="48.63396" lon="6.31288">
        <ele>205</ele>
        <time>2011-06-18T00:00:07Z</time>
      </trkpt>
      <trkpt lat="48.63393" lon="6.31282">
        <ele>205</ele>
        <time>2011-06-18T00:00:07Z</time>
      </trkpt>
      <trkpt lat="48.63387" lon="6.31251">
        <ele>205</ele>
        <time>2011-06-18T00:00:10Z</time>
      </trkpt>
      <trkpt lat="48.63388" lon="6.31229">
        <ele>204</ele>
        <time>2011-06-18T00:00:12Z</time>
      </trkpt>
      <trkpt lat="48.63434" lon="6.31114">
        <ele>204</ele>
        <time>2011-06-18T00:00:24Z</time>
      </trkpt>
      <trkpt lat="48.63445" lon="6.31097">
        <ele>204</ele>
        <time>2011-06-18T00:00:26Z</time>
      </trkpt>
      <trkpt lat="48.63422" lon="6.31044">
        <ele>204</ele>
        <time>2011-06-18T00:00:32Z</time>
      </trkpt>
      <trkpt lat="48.63422" lon="6.31017">
        <ele>204</ele>
        <time>2011-06-18T00:00:34Z</time>
      </trkpt>
      <trkpt lat="48.63405" lon="6.30994">
        <ele>204</ele>
        <time>2011-06-18T00:00:37Z</time>
      </trkpt>
      <trkpt lat="48.63376" lon="6.30932">
        <ele>204</ele>
        <time>2011-06-18T00:00:44Z</time>
      </trkpt>
      <trkpt lat="48.63293" lon="6.30792">
        <ele>203</ele>
        <time>2011-06-18T00:01:01Z</time>
      </trkpt>
      <trkpt lat="48.63276" lon="6.30757">
        <ele>203</ele>
        <time>2011-06-18T00:01:06Z</time>
      </trkpt>
      <trkpt lat="48.6327" lon="6.30734">
        <ele>203</ele>
        <time>2011-06-18T00:01:09Z</time>
      </trkpt>
      <trkpt lat="48.63271" lon="6.307">
        <ele>204</ele>
        <time>2011-06-18T00:01:14Z</time>
      </trkpt>
      <trkpt lat="48.63289" lon="6.30658">
        <ele>204</ele>
        <time>2011-06-18T00:01:20Z</time>
      </trkpt>
      <trkpt lat="48.63299" lon="6.30623">
        <ele>205</ele>
        <time>2011-06-18T00:01:25Z</time>
      </trkpt>
      <trkpt lat="48.63323" lon="6.30487">
        <ele>205</ele>
        <time>2011-06-18T00:01:38Z</time>
      </trkpt>
      <trkpt lat="48.63334" lon="6.30444">
        <ele>205</ele>
        <time>2011-06-18T00:01:45Z</time>
      </trkpt>
      <trkpt lat="48.63258" lon="6.30315">
        <ele>209</ele>
        <time>2011-06-18T00:02:13Z</time>
      </trkpt>
      <trkpt lat="48.63243" lon="6.30258">
        <ele>209</ele>
        <time>2011-06-18T00:02:22Z</time>
      </trkpt>
      <trkpt lat="48.63175" lon="6.30174">
        <ele>212</ele>
        <time>2011-06-18T00:02:42Z</time>
      </trkpt>
      <trkpt lat="48.63164" lon="6.30185">
        <ele>212</ele>
        <time>2011-06-18T00:02:46Z</time>
      </trkpt>
      <trkpt lat="48.63113" lon="6.30205">
        <ele>214</ele>
        <time>2011-06-18T00:03:01Z</time>
      </trkpt>
      <trkpt lat="48.63063" lon="6.30267">
        <ele>217</ele>
        <time>2011-06-18T00:03:20Z</time>
      </trkpt>
      <trkpt lat="48.63053" lon="6.3029">
        <ele>216</ele>
        <time>2011-06-18T00:03:22Z</time>
      </trkpt>
      <trkpt lat="48.63063" lon="6.30324">
        <ele>215</ele>
        <time>2011-06-18T00:03:25Z</time>
      </trkpt>
      <trkpt lat="48.63159" lon="6.3048">
        <ele>211</ele>
        <time>2011-06-18T00:03:44Z</time>
      </trkpt>
      <trkpt lat="48.63195" lon="6.30548">
        <ele>209</ele>
        <time>2011-06-18T00:03:52Z</time>
      </trkpt>
      <trkpt lat="48.63156" lon="6.30586">
        <ele>208</ele>
        <time>2011-06-18T00:03:58Z</time>
      </trkpt>
      <trkpt lat="48.63089" lon="6.30673">
        <ele>206</ele>
        <time>2011-06-18T00:04:10Z</time>
      </trkpt>
      <trkpt lat="48.62921" lon="6.30874">
        <ele>206</ele>
        <time>2011-06-18T00:04:38Z</time>
      </trkpt>
      <trkpt lat="48.62701" lon="6.31125">
        <ele>214</ele>
        <time>2011-06-18T00:05:47Z</time>
      </trkpt>
      <trkpt lat="48.62641" lon="6.31237">
        <ele>211</ele>
        <time>2011-06-18T00:06:00Z</time>
      </trkpt>
      <trkpt lat="48.62563" lon="6.31343">
        <ele>209</ele>
        <time>2011-06-18T00:06:14Z</time>
      </trkpt>
      <trkpt lat="48.62466" lon="6.31504">
        <ele>210</ele>
        <time>2011-06-18T00:06:37Z</time>
      </trkpt>
      <trkpt lat="48.62411" lon="6.31621">
        <ele>206</ele>
        <time>2011-06-18T00:06:50Z</time>
      </trkpt>
      <trkpt lat="48.62393" lon="6.31667">
        <ele>205</ele>
        <time>2011-06-18T00:06:55Z</time>
      </trkpt>
      <trkpt lat="48.62347" lon="6.31837">
        <ele>204</ele>
        <time>2011-06-18T00:07:11Z</time>
      </trkpt>
      <trkpt lat="48.62328" lon="6.31888">
        <ele>203</ele>
        <time>2011-06-18T00:07:16Z</time>
      </trkpt>
      <trkpt lat="48.62268" lon="6.31969">
        <ele>203</ele>
        <time>2011-06-18T00:07:27Z</time>
      </trkpt>
      <trkpt lat="48.62215" lon="6.32053">
        <ele>203</ele>
        <time>2011-06-18T00:07:40Z</time>
      </trkpt>
      <trkpt lat="48.62054" lon="6.32403">
        <ele>206</ele>
        <time>2011-06-18T00:08:27Z</time>
      </trkpt>
      <trkpt lat="48.62026" lon="6.32447">
        <ele>207</ele>
        <time>2011-06-18T00:08:39Z</time>
      </trkpt>
      <trkpt lat="48.62003" lon="6.32475">
        <ele>209</ele>
        <time>2011-06-18T00:08:49Z</time>
      </trkpt>
      <trkpt lat="48.61925" lon="6.32529">
        <ele>213</ele>
        <time>2011-06-18T00:09:15Z</time>
      </trkpt>
      <trkpt lat="48.61897" lon="6.32557">
        <ele>213</ele>
        <time>2011-06-18T00:09:23Z</time>
      </trkpt>
      <trkpt lat="48.61863" lon="6.32599">
        <ele>214</ele>
        <time>2011-06-18T00:09:32Z</time>
      </trkpt>
      <trkpt lat="48.61819" lon="6.32675">
        <ele>216</ele>
        <time>2011-06-18T00:09:47Z</time>
      </trkpt>
      <trkpt lat="48.61783" lon="6.32718">
        <ele>217</ele>
        <time>2011-06-18T00:09:57Z</time>
      </trkpt>
      <trkpt lat="48.61783" lon="6.32718">
        <ele>217</ele>
        <time>2011-06-18T00:09:58Z</time>
      </trkpt>
      <trkpt lat="48.61753" lon="6.32741">
        <ele>217</ele>
        <time>2011-06-18T00:10:02Z</time>
      </trkpt>
      <trkpt lat="48.61704" lon="6.32758">
        <ele>217</ele>
        <time>2011-06-18T00:10:09Z</time>
      </trkpt>
      <trkpt lat="48.61674" lon="6.32758">
        <ele>217</ele>
        <time>2011-06-18T00:10:13Z</time>
      </trkpt>
      <trkpt lat="48.61626" lon="6.32742">
        <ele>218</ele>
        <time>2011-06-18T00:10:27Z</time>
      </trkpt>
      <trkpt lat="48.61594" lon="6.32753">
        <ele>219</ele>
        <time>2011-06-18T00:10:36Z</time>
      </trkpt>
      <trkpt lat="48.61544" lon="6.32806">
        <ele>222</ele>
        <time>2011-06-18T00:10:52Z</time>
      </trkpt>
      <trkpt lat="48.6133" lon="6.3301">
        <ele>218</ele>
        <time>2011-06-18T00:11:26Z</time>
      </trkpt>
      <trkpt lat="48.61294" lon="6.33058">
        <ele>217</ele>
        <time>2011-06-18T00:11:32Z</time>
      </trkpt>
      <trkpt lat="48.61257" lon="6.33121">
        <ele>216</ele>
        <time>2011-06-18T00:11:40Z</time>
      </trkpt>
      <trkpt lat="48.61229" lon="6.33148">
        <ele>215</ele>
        <time>2011-06-18T00:11:44Z</time>
      </trkpt>
      <trkpt lat="48.61141" lon="6.33166">
        <ele>213</ele>
        <time>2011-06-18T00:11:56Z</time>
      </trkpt>
      <trkpt lat="48.60855" lon="6.33244">
        <ele>210</ele>
        <time>2011-06-18T00:12:35Z</time>
      </trkpt>
      <trkpt lat="48.60811" lon="6.33252">
        <ele>209</ele>
        <time>2011-06-18T00:12:41Z</time>
      </trkpt>
      <trkpt lat="48.60785" lon="6.33247">
        <ele>209</ele>
        <time>2011-06-18T00:12:44Z</time>
      </trkpt>
      <trkpt lat="48.60742" lon="6.33224">
        <ele>209</ele>
        <time>2011-06-18T00:12:50Z</time>
      </trkpt>
      <trkpt lat="48.60552" lon="6.33087">
        <ele>207</ele>
        <time>2011-06-18T00:13:19Z</time>
      </trkpt>
      <trkpt lat="48.60442" lon="6.33002">
        <ele>211</ele>
        <time>2011-06-18T00:13:51Z</time>
      </trkpt>
      <trkpt lat="48.60372" lon="6.32931">
        <ele>211</ele>
        <time>2011-06-18T00:14:02Z</time>
      </trkpt>
      <trkpt lat="48.60327" lon="6.32901">
        <ele>211</ele>
        <time>2011-06-18T00:14:09Z</time>
      </trkpt>
      <trkpt lat="48.6029" lon="6.329">
        <ele>210</ele>
        <time>2011-06-18T00:14:14Z</time>
      </trkpt>
      <trkpt lat="48.60266" lon="6.32906">
        <ele>209</ele>
        <time>2011-06-18T00:14:17Z</time>
      </trkpt>
      <trkpt lat="48.60067" lon="6.32983">
        <ele>205</ele>
        <time>2011-06-18T00:14:45Z</time>
      </trkpt>
      <trkpt lat="48.59931" lon="6.33001">
        <ele>209</ele>
        <time>2011-06-18T00:15:19Z</time>
      </trkpt>
      <trkpt lat="48.599" lon="6.33002">
        <ele>209</ele>
        <time>2011-06-18T00:15:24Z</time>
      </trkpt>
      <trkpt lat="48.59828" lon="6.32992">
        <ele>210</ele>
        <time>2011-06-18T00:15:37Z</time>
      </trkpt>
      <trkpt lat="48.59797" lon="6.33003">
        <ele>209</ele>
        <time>2011-06-18T00:15:41Z</time>
      </trkpt>
      <trkpt lat="48.59722" lon="6.33042">
        <ele>207</ele>
        <time>2011-06-18T00:15:51Z</time>
      </trkpt>
      <trkpt lat="48.59686" lon="6.33045">
        <ele>207</ele>
        <time>2011-06-18T00:16:00Z</time>
      </trkpt>
      <trkpt lat="48.59591" lon="6.33043">
        <ele>210</ele>
        <time>2011-06-18T00:16:21Z</time>
      </trkpt>
      <trkpt lat="48.59528" lon="6.33033">
        <ele>210</ele>
        <time>2011-06-18T00:16:32Z</time>
      </trkpt>
      <trkpt lat="48.59494" lon="6.3302">
        <ele>211</ele>
        <time>2011-06-18T00:16:38Z</time>
      </trkpt>
      <trkpt lat="48.59413" lon="6.32953">
        <ele>216</ele>
        <time>2011-06-18T00:17:10Z</time>
      </trkpt>
      <trkpt lat="48.59386" lon="6.32944">
        <ele>215</ele>
        <time>2011-06-18T00:17:14Z</time>
      </trkpt>
      <trkpt lat="48.5935" lon="6.32943">
        <ele>214</ele>
        <time>2011-06-18T00:17:19Z</time>
      </trkpt>
      <trkpt lat="48.59315" lon="6.32958">
        <ele>213</ele>
        <time>2011-06-18T00:17:24Z</time>
      </trkpt>
      <trkpt lat="48.59284" lon="6.32985">
        <ele>211</ele>
        <time>2011-06-18T00:17:29Z</time>
      </trkpt>
      <trkpt lat="48.59266" lon="6.33009">
        <ele>210</ele>
        <time>2011-06-18T00:17:32Z</time>
      </trkpt>
      <trkpt lat="48.59248" lon="6.33046">
        <ele>209</ele>
        <time>2011-06-18T00:17:36Z</time>
      </trkpt>
      <trkpt lat="48.59237" lon="6.33086">
        <ele>209</ele>
        <time>2011-06-18T00:17:40Z</time>
      </trkpt>
      <trkpt lat="48.59222" lon="6.33238">
        <ele>208</ele>
        <time>2011-06-18T00:17:53Z</time>
      </trkpt>
      <trkpt lat="48.59206" lon="6.33314">
        <ele>208</ele>
        <time>2011-06-18T00:18:02Z</time>
      </trkpt>
      <trkpt lat="48.592" lon="6.33314">
        <ele>208</ele>
        <time>2011-06-18T00:18:03Z</time>
      </trkpt>
      <trkpt lat="48.59195" lon="6.33323">
        <ele>208</ele>
        <time>2011-06-18T00:18:04Z</time>
      </trkpt>
      <trkpt lat="48.59097" lon="6.33303">
        <ele>209</ele>
        <time>2011-06-18T00:18:19Z</time>
      </trkpt>
      <trkpt lat="48.58404" lon="6.33152">
        <ele>215</ele>
        <time>2011-06-18T00:20:17Z</time>
      </trkpt>
      <trkpt lat="48.58164" lon="6.33095">
        <ele>220</ele>
        <time>2011-06-18T00:21:09Z</time>
      </trkpt>
      <trkpt lat="48.56947" lon="6.32258">
        <ele>258</ele>
        <time>2011-06-18T00:26:40Z</time>
      </trkpt>
      <trkpt lat="48.56947" lon="6.32258">
        <ele>258</ele>
        <time>2011-06-18T00:26:41Z</time>
      </trkpt>
      <trkpt lat="48.56731" lon="6.3211">
        <ele>270</ele>
        <time>2011-06-18T00:28:01Z</time>
      </trkpt>
      <trkpt lat="48.56589" lon="6.3238">
        <ele>288</ele>
        <time>2011-06-18T00:29:43Z</time>
      </trkpt>
      <trkpt lat="48.56579" lon="6.32406">
        <ele>287</ele>
        <time>2011-06-18T00:29:46Z</time>
      </trkpt>
      <trkpt lat="48.56577" lon="6.32433">
        <ele>286</ele>
        <time>2011-06-18T00:29:48Z</time>
      </trkpt>
      <trkpt lat="48.5658" lon="6.32456">
        <ele>286</ele>
        <time>2011-06-18T00:29:50Z</time>
      </trkpt>
      <trkpt lat="48.56593" lon="6.32491">
        <ele>285</ele>
        <time>2011-06-18T00:29:54Z</time>
      </trkpt>
      <trkpt lat="48.56644" lon="6.32593">
        <ele>283</ele>
        <time>2011-06-18T00:30:05Z</time>
      </trkpt>
      <trkpt lat="48.56648" lon="6.32611">
        <ele>283</ele>
        <time>2011-06-18T00:30:08Z</time>
      </trkpt>
      <trkpt lat="48.56645" lon="6.32626">
        <ele>283</ele>
        <time>2011-06-18T00:30:11Z</time>
      </trkpt>
      <trkpt lat="48.56636" lon="6.32636">
        <ele>283</ele>
        <time>2011-06-18T00:30:13Z</time>
      </trkpt>
      <trkpt lat="48.56622" lon="6.32638">
        <ele>284</ele>
        <time>2011-06-18T00:30:17Z</time>
      </trkpt>
      <trkpt lat="48.5661" lon="6.32631">
        <ele>284</ele>
        <time>2011-06-18T00:30:20Z</time>
      </trkpt>
      <trkpt lat="48.5657" lon="6.32571">
        <ele>286</ele>
        <time>2011-06-18T00:30:34Z</time>
      </trkpt>
      <trkpt lat="48.56558" lon="6.32567">
        <ele>286</ele>
        <time>2011-06-18T00:30:37Z</time>
      </trkpt>
      <trkpt lat="48.56543" lon="6.32576">
        <ele>287</ele>
        <time>2011-06-18T00:30:41Z</time>
      </trkpt>
      <trkpt lat="48.56459" lon="6.32812">
        <ele>265</ele>
        <time>2011-06-18T00:31:04Z</time>
      </trkpt>
      <trkpt lat="48.5645" lon="6.32857">
        <ele>263</ele>
        <time>2011-06-18T00:31:08Z</time>
      </trkpt>
      <trkpt lat="48.56418" lon="6.32879">
        <ele>261</ele>
        <time>2011-06-18T00:31:13Z</time>
      </trkpt>
      <trkpt lat="48.56415" lon="6.32894">
        <ele>260</ele>
        <time>2011-06-18T00:31:15Z</time>
      </trkpt>
      <trkpt lat="48.56347" lon="6.32962">
        <ele>256</ele>
        <time>2011-06-18T00:31:25Z</time>
      </trkpt>
      <trkpt lat="48.56347" lon="6.32962">
        <ele>256</ele>
        <time>2011-06-18T00:31:26Z</time>
      </trkpt>
      <trkpt lat="48.56279" lon="6.33005">
        <ele>248</ele>
        <time>2011-06-18T00:31:36Z</time>
      </trkpt>
      <trkpt lat="48.56217" lon="6.33035">
        <ele>242</ele>
        <time>2011-06-18T00:31:45Z</time>
      </trkpt>
      <trkpt lat="48.56206" lon="6.33033">
        <ele>241</ele>
        <time>2011-06-18T00:31:46Z</time>
      </trkpt>
      <trkpt lat="48.56189" lon="6.33008">
        <ele>241</ele>
        <time>2011-06-18T00:31:50Z</time>
      </trkpt>
      <trkpt lat="48.56173" lon="6.33008">
        <ele>241</ele>
        <time>2011-06-18T00:31:52Z</time>
      </trkpt>
      <trkpt lat="48.56167" lon="6.33018">
        <ele>241</ele>
        <time>2011-06-18T00:31:53Z</time>
      </trkpt>
      <trkpt lat="48.56157" lon="6.33017">
        <ele>241</ele>
        <time>2011-06-18T00:31:54Z</time>
      </trkpt>
      <trkpt lat="48.56141" lon="6.33025">
        <ele>241</ele>
        <time>2011-06-18T00:31:57Z</time>
      </trkpt>
      <trkpt lat="48.56109" lon="6.33058">
        <ele>241</ele>
        <time>2011-06-18T00:32:02Z</time>
      </trkpt>
      <trkpt lat="48.56057" lon="6.32994">
        <ele>243</ele>
        <time>2011-06-18T00:32:20Z</time>
      </trkpt>
      <trkpt lat="48.56026" lon="6.32948">
        <ele>245</ele>
        <time>2011-06-18T00:32:32Z</time>
      </trkpt>
      <trkpt lat="48.55904" lon="6.32746">
        <ele>251</ele>
        <time>2011-06-18T00:33:21Z</time>
      </trkpt>
      <trkpt lat="48.5585" lon="6.32684">
        <ele>256</ele>
        <time>2011-06-18T00:33:50Z</time>
      </trkpt>
      <trkpt lat="48.55745" lon="6.32595">
        <ele>265</ele>
        <time>2011-06-18T00:34:42Z</time>
      </trkpt>
      <trkpt lat="48.55695" lon="6.32534">
        <ele>270</ele>
        <time>2011-06-18T00:35:10Z</time>
      </trkpt>
      <trkpt lat="48.55695" lon="6.32534">
        <ele>270</ele>
        <time>2011-06-18T00:35:11Z</time>
      </trkpt>
      <trkpt lat="48.55627" lon="6.3242">
        <ele>281</ele>
        <time>2011-06-18T00:36:09Z</time>
      </trkpt>
      <trkpt lat="48.55595" lon="6.32358">
        <ele>289</ele>
        <time>2011-06-18T00:36:52Z</time>
      </trkpt>
      <trkpt lat="48.55558" lon="6.32239">
        <ele>305</ele>
        <time>2011-06-18T00:38:04Z</time>
      </trkpt>
      <trkpt lat="48.55514" lon="6.32155">
        <ele>312</ele>
        <time>2011-06-18T00:38:44Z</time>
      </trkpt>
      <trkpt lat="48.55537" lon="6.32125">
        <ele>316</ele>
        <time>2011-06-18T00:39:02Z</time>
      </trkpt>
      <trkpt lat="48.55544" lon="6.32103">
        <ele>318</ele>
        <time>2011-06-18T00:39:11Z</time>
      </trkpt>
      <trkpt lat="48.55539" lon="6.32075">
        <ele>319</ele>
        <time>2011-06-18T00:39:19Z</time>
      </trkpt>
      <trkpt lat="48.55516" lon="6.31999">
        <ele>322</ele>
        <time>2011-06-18T00:39:40Z</time>
      </trkpt>
      <trkpt lat="48.55498" lon="6.31873">
        <ele>328</ele>
        <time>2011-06-18T00:40:13Z</time>
      </trkpt>
      <trkpt lat="48.55517" lon="6.31694">
        <ele>336</ele>
        <time>2011-06-18T00:41:01Z</time>
      </trkpt>
      <trkpt lat="48.55514" lon="6.31452">
        <ele>344</ele>
        <time>2011-06-18T00:41:54Z</time>
      </trkpt>
      <trkpt lat="48.55516" lon="6.31433">
        <ele>344</ele>
        <time>2011-06-18T00:41:58Z</time>
      </trkpt>
      <trkpt lat="48.55529" lon="6.31395">
        <ele>345</ele>
        <time>2011-06-18T00:42:06Z</time>
      </trkpt>
      <trkpt lat="48.55575" lon="6.31321">
        <ele>348</ele>
        <time>2011-06-18T00:42:24Z</time>
      </trkpt>
      <trkpt lat="48.55575" lon="6.31321">
        <ele>348</ele>
        <time>2011-06-18T00:42:25Z</time>
      </trkpt>
      <trkpt lat="48.55614" lon="6.3127">
        <ele>347</ele>
        <time>2011-06-18T00:42:32Z</time>
      </trkpt>
      <trkpt lat="48.556" lon="6.31258">
        <ele>347</ele>
        <time>2011-06-18T00:42:34Z</time>
      </trkpt>
      <trkpt lat="48.55589" lon="6.31236">
        <ele>346</ele>
        <time>2011-06-18T00:42:37Z</time>
      </trkpt>
      <trkpt lat="48.55569" lon="6.31151">
        <ele>346</ele>
        <time>2011-06-18T00:42:45Z</time>
      </trkpt>
      <trkpt lat="48.55549" lon="6.31116">
        <ele>345</ele>
        <time>2011-06-18T00:42:49Z</time>
      </trkpt>
      <trkpt lat="48.54841" lon="6.30155">
        <ele>336</ele>
        <time>2011-06-18T00:44:56Z</time>
      </trkpt>
      <trkpt lat="48.54817" lon="6.30109">
        <ele>335</ele>
        <time>2011-06-18T00:45:01Z</time>
      </trkpt>
      <trkpt lat="48.54809" lon="6.30083">
        <ele>334</ele>
        <time>2011-06-18T00:45:04Z</time>
      </trkpt>
      <trkpt lat="48.54762" lon="6.30044">
        <ele>334</ele>
        <time>2011-06-18T00:45:11Z</time>
      </trkpt>
      <trkpt lat="48.54701" lon="6.29963">
        <ele>331</ele>
        <time>2011-06-18T00:45:22Z</time>
      </trkpt>
      <trkpt lat="48.54055" lon="6.2908">
        <ele>310</ele>
        <time>2011-06-18T00:47:18Z</time>
      </trkpt>
      <trkpt lat="48.53871" lon="6.28588">
        <ele>308</ele>
        <time>2011-06-18T00:48:08Z</time>
      </trkpt>
      <trkpt lat="48.53544" lon="6.27688">
        <ele>281</ele>
        <time>2011-06-18T00:49:39Z</time>
      </trkpt>
      <trkpt lat="48.53531" lon="6.27655">
        <ele>278</ele>
        <time>2011-06-18T00:49:42Z</time>
      </trkpt>
      <trkpt lat="48.53514" lon="6.27625">
        <ele>276</ele>
        <time>2011-06-18T00:49:46Z</time>
      </trkpt>
      <trkpt lat="48.53496" lon="6.27609">
        <ele>275</ele>
        <time>2011-06-18T00:49:49Z</time>
      </trkpt>
      <trkpt lat="48.53472" lon="6.27599">
        <ele>273</ele>
        <time>2011-06-18T00:49:52Z</time>
      </trkpt>
      <trkpt lat="48.53004" lon="6.27493">
        <ele>234</ele>
        <time>2011-06-18T00:50:55Z</time>
      </trkpt>
      <trkpt lat="48.52824" lon="6.27314">
        <ele>235</ele>
        <time>2011-06-18T00:51:28Z</time>
      </trkpt>
      <trkpt lat="48.52441" lon="6.26867">
        <ele>237</ele>
        <time>2011-06-18T00:52:41Z</time>
      </trkpt>
      <trkpt lat="48.52441" lon="6.26867">
        <ele>237</ele>
        <time>2011-06-18T00:52:42Z</time>
      </trkpt>
      <trkpt lat="48.52418" lon="6.26843">
        <ele>237</ele>
        <time>2011-06-18T00:52:46Z</time>
      </trkpt>
      <trkpt lat="48.5238" lon="6.26824">
        <ele>237</ele>
        <time>2011-06-18T00:52:53Z</time>
      </trkpt>
      <trkpt lat="48.52369" lon="6.26813">
        <ele>237</ele>
        <time>2011-06-18T00:52:55Z</time>
      </trkpt>
      <trkpt lat="48.52352" lon="6.26767">
        <ele>238</ele>
        <time>2011-06-18T00:53:01Z</time>
      </trkpt>
      <trkpt lat="48.52302" lon="6.26706">
        <ele>238</ele>
        <time>2011-06-18T00:53:10Z</time>
      </trkpt>
      <trkpt lat="48.52292" lon="6.26688">
        <ele>238</ele>
        <time>2011-06-18T00:53:12Z</time>
      </trkpt>
      <trkpt lat="48.52285" lon="6.26664">
        <ele>238</ele>
        <time>2011-06-18T00:53:14Z</time>
      </trkpt>
      <trkpt lat="48.52275" lon="6.26579">
        <ele>240</ele>
        <time>2011-06-18T00:53:33Z</time>
      </trkpt>
      <trkpt lat="48.52279" lon="6.26555">
        <ele>241</ele>
        <time>2011-06-18T00:53:39Z</time>
      </trkpt>
      <trkpt lat="48.52298" lon="6.26527">
        <ele>243</ele>
        <time>2011-06-18T00:53:48Z</time>
      </trkpt>
      <trkpt lat="48.52394" lon="6.26482">
        <ele>244</ele>
        <time>2011-06-18T00:54:05Z</time>
      </trkpt>
      <trkpt lat="48.52492" lon="6.26494">
        <ele>241</ele>
        <time>2011-06-18T00:54:18Z</time>
      </trkpt>
      <trkpt lat="48.5252" lon="6.26479">
        <ele>241</ele>
        <time>2011-06-18T00:54:26Z</time>
      </trkpt>
      <trkpt lat="48.52544" lon="6.26447">
        <ele>243</ele>
        <time>2011-06-18T00:54:35Z</time>
      </trkpt>
      <trkpt lat="48.52528" lon="6.26318">
        <ele>246</ele>
        <time>2011-06-18T00:54:58Z</time>
      </trkpt>
      <trkpt lat="48.52515" lon="6.26306">
        <ele>246</ele>
        <time>2011-06-18T00:55:03Z</time>
      </trkpt>
      <trkpt lat="48.52489" lon="6.26266">
        <ele>248</ele>
        <time>2011-06-18T00:55:14Z</time>
      </trkpt>
      <trkpt lat="48.52422" lon="6.26147">
        <ele>253</ele>
        <time>2011-06-18T00:55:47Z</time>
      </trkpt>
      <trkpt lat="48.52393" lon="6.26123">
        <ele>255</ele>
        <time>2011-06-18T00:56:03Z</time>
      </trkpt>
      <trkpt lat="48.52374" lon="6.26118">
        <ele>257</ele>
        <time>2011-06-18T00:56:12Z</time>
      </trkpt>
      <trkpt lat="48.5235" lon="6.26122">
        <ele>259</ele>
        <time>2011-06-18T00:56:24Z</time>
      </trkpt>
      <trkpt lat="48.52274" lon="6.26172">
        <ele>267</ele>
        <time>2011-06-18T00:57:04Z</time>
      </trkpt>
      <trkpt lat="48.5222" lon="6.26186">
        <ele>272</ele>
        <time>2011-06-18T00:57:32Z</time>
      </trkpt>
      <trkpt lat="48.52156" lon="6.26175">
        <ele>278</ele>
        <time>2011-06-18T00:58:04Z</time>
      </trkpt>
      <trkpt lat="48.52096" lon="6.26174">
        <ele>284</ele>
        <time>2011-06-18T00:58:40Z</time>
      </trkpt>
      <trkpt lat="48.52062" lon="6.26159">
        <ele>289</ele>
        <time>2011-06-18T00:59:01Z</time>
      </trkpt>
      <trkpt lat="48.52038" lon="6.26138">
        <ele>291</ele>
        <time>2011-06-18T00:59:13Z</time>
      </trkpt>
      <trkpt lat="48.51953" lon="6.25997">
        <ele>301</ele>
        <time>2011-06-18T01:00:09Z</time>
      </trkpt>
      <trkpt lat="48.51904" lon="6.25882">
        <ele>304</ele>
        <time>2011-06-18T01:00:33Z</time>
      </trkpt>
      <trkpt lat="48.51872" lon="6.25839">
        <ele>306</ele>
        <time>2011-06-18T01:00:50Z</time>
      </trkpt>
      <trkpt lat="48.51854" lon="6.25823">
        <ele>308</ele>
        <time>2011-06-18T01:00:58Z</time>
      </trkpt>
      <trkpt lat="48.51826" lon="6.25805">
        <ele>310</ele>
        <time>2011-06-18T01:01:10Z</time>
      </trkpt>
      <trkpt lat="48.51777" lon="6.25786">
        <ele>313</ele>
        <time>2011-06-18T01:01:30Z</time>
      </trkpt>
      <trkpt lat="48.51636" lon="6.25686">
        <ele>323</ele>
        <time>2011-06-18T01:02:30Z</time>
      </trkpt>
      <trkpt lat="48.5154" lon="6.25649">
        <ele>326</ele>
        <time>2011-06-18T01:02:55Z</time>
      </trkpt>
      <trkpt lat="48.51439" lon="6.2559">
        <ele>326</ele>
        <time>2011-06-18T01:03:09Z</time>
      </trkpt>
      <trkpt lat="48.51384" lon="6.25544">
        <ele>325</ele>
        <time>2011-06-18T01:03:18Z</time>
      </trkpt>
      <trkpt lat="48.51343" lon="6.25517">
        <ele>325</ele>
        <time>2011-06-18T01:03:24Z</time>
      </trkpt>
      <trkpt lat="48.51253" lon="6.25476">
        <ele>325</ele>
        <time>2011-06-18T01:03:36Z</time>
      </trkpt>
      <trkpt lat="48.51166" lon="6.25446">
        <ele>323</ele>
        <time>2011-06-18T01:03:48Z</time>
      </trkpt>
      <trkpt lat="48.50804" lon="6.2537">
        <ele>316</ele>
        <time>2011-06-18T01:04:37Z</time>
      </trkpt>
      <trkpt lat="48.50772" lon="6.25372">
        <ele>315</ele>
        <time>2011-06-18T01:04:41Z</time>
      </trkpt>
      <trkpt lat="48.50723" lon="6.25387">
        <ele>315</ele>
        <time>2011-06-18T01:04:48Z</time>
      </trkpt>
      <trkpt lat="48.50637" lon="6.25428">
        <ele>314</ele>
        <time>2011-06-18T01:05:00Z</time>
      </trkpt>
      <trkpt lat="48.5062" lon="6.25431">
        <ele>313</ele>
        <time>2011-06-18T01:05:02Z</time>
      </trkpt>
      <trkpt lat="48.50553" lon="6.25423">
        <ele>311</ele>
        <time>2011-06-18T01:05:11Z</time>
      </trkpt>
      <trkpt lat="48.50488" lon="6.25455">
        <ele>310</ele>
        <time>2011-06-18T01:05:20Z</time>
      </trkpt>
      <trkpt lat="48.50458" lon="6.25464">
        <ele>309</ele>
        <time>2011-06-18T01:05:24Z</time>
      </trkpt>
      <trkpt lat="48.50358" lon="6.25429">
        <ele>309</ele>
        <time>2011-06-18T01:05:38Z</time>
      </trkpt>
      <trkpt lat="48.50289" lon="6.25432">
        <ele>309</ele>
        <time>2011-06-18T01:05:49Z</time>
      </trkpt>
      <trkpt lat="48.50186" lon="6.25464">
        <ele>310</ele>
        <time>2011-06-18T01:06:05Z</time>
      </trkpt>
      <trkpt lat="48.50165" lon="6.25457">
        <ele>309</ele>
        <time>2011-06-18T01:06:08Z</time>
      </trkpt>
      <trkpt lat="48.50141" lon="6.25434">
        <ele>308</ele>
        <time>2011-06-18T01:06:12Z</time>
      </trkpt>
      <trkpt lat="48.50079" lon="6.25354">
        <ele>307</ele>
        <time>2011-06-18T01:06:23Z</time>
      </trkpt>
      <trkpt lat="48.50079" lon="6.25354">
        <ele>307</ele>
        <time>2011-06-18T01:06:24Z</time>
      </trkpt>
      <trkpt lat="48.50047" lon="6.25308">
        <ele>308</ele>
        <time>2011-06-18T01:06:34Z</time>
      </trkpt>
      <trkpt lat="48.50031" lon="6.25269">
        <ele>308</ele>
        <time>2011-06-18T01:06:41Z</time>
      </trkpt>
      <trkpt lat="48.49967" lon="6.25072">
        <ele>312</ele>
        <time>2011-06-18T01:07:13Z</time>
      </trkpt>
      <trkpt lat="48.49949" lon="6.25003">
        <ele>313</ele>
        <time>2011-06-18T01:07:27Z</time>
      </trkpt>
      <trkpt lat="48.4993" lon="6.24996">
        <ele>314</ele>
        <time>2011-06-18T01:07:32Z</time>
      </trkpt>
      <trkpt lat="48.4988" lon="6.25003">
        <ele>316</ele>
        <time>2011-06-18T01:07:45Z</time>
      </trkpt>
      <trkpt lat="48.49859" lon="6.25">
        <ele>315</ele>
        <time>2011-06-18T01:07:48Z</time>
      </trkpt>
      <trkpt lat="48.49817" lon="6.24971">
        <ele>315</ele>
        <time>2011-06-18T01:07:54Z</time>
      </trkpt>
      <trkpt lat="48.49805" lon="6.24984">
        <ele>315</ele>
        <time>2011-06-18T01:07:56Z</time>
      </trkpt>
      <trkpt lat="48.49802" lon="6.25054">
        <ele>315</ele>
        <time>2011-06-18T01:08:02Z</time>
      </trkpt>
      <trkpt lat="48.49721" lon="6.25109">
        <ele>315</ele>
        <time>2011-06-18T01:08:14Z</time>
      </trkpt>
      <trkpt lat="48.4967" lon="6.25159">
        <ele>315</ele>
        <time>2011-06-18T01:08:22Z</time>
      </trkpt>
      <trkpt lat="48.49635" lon="6.25206">
        <ele>315</ele>
        <time>2011-06-18T01:08:29Z</time>
      </trkpt>
      <trkpt lat="48.49601" lon="6.25281">
        <ele>315</ele>
        <time>2011-06-18T01:08:39Z</time>
      </trkpt>
      <trkpt lat="48.49588" lon="6.25305">
        <ele>315</ele>
        <time>2011-06-18T01:08:43Z</time>
      </trkpt>
      <trkpt lat="48.4957" lon="6.25327">
        <ele>316</ele>
        <time>2011-06-18T01:08:47Z</time>
      </trkpt>
      <trkpt lat="48.49539" lon="6.25347">
        <ele>315</ele>
        <time>2011-06-18T01:08:51Z</time>
      </trkpt>
      <trkpt lat="48.49395" lon="6.25417">
        <ele>312</ele>
        <time>2011-06-18T01:09:11Z</time>
      </trkpt>
      <trkpt lat="48.49359" lon="6.25446">
        <ele>312</ele>
        <time>2011-06-18T01:09:17Z</time>
      </trkpt>
      <trkpt lat="48.49334" lon="6.25457">
        <ele>312</ele>
        <time>2011-06-18T01:09:20Z</time>
      </trkpt>
      <trkpt lat="48.49224" lon="6.25465">
        <ele>312</ele>
        <time>2011-06-18T01:09:35Z</time>
      </trkpt>
      <trkpt lat="48.49184" lon="6.25452">
        <ele>312</ele>
        <time>2011-06-18T01:09:40Z</time>
      </trkpt>
      <trkpt lat="48.49107" lon="6.25407">
        <ele>312</ele>
        <time>2011-06-18T01:09:51Z</time>
      </trkpt>
      <trkpt lat="48.48951" lon="6.25277">
        <ele>314</ele>
        <time>2011-06-18T01:10:23Z</time>
      </trkpt>
      <trkpt lat="48.48844" lon="6.25177">
        <ele>313</ele>
        <time>2011-06-18T01:10:40Z</time>
      </trkpt>
      <trkpt lat="48.4881" lon="6.25163">
        <ele>313</ele>
        <time>2011-06-18T01:10:46Z</time>
      </trkpt>
      <trkpt lat="48.48786" lon="6.25165">
        <ele>313</ele>
        <time>2011-06-18T01:10:50Z</time>
      </trkpt>
      <trkpt lat="48.48705" lon="6.25217">
        <ele>314</ele>
        <time>2011-06-18T01:11:04Z</time>
      </trkpt>
      <trkpt lat="48.48653" lon="6.25238">
        <ele>315</ele>
        <time>2011-06-18T01:11:17Z</time>
      </trkpt>
      <trkpt lat="48.4862" lon="6.25242">
        <ele>316</ele>
        <time>2011-06-18T01:11:25Z</time>
      </trkpt>
      <trkpt lat="48.48564" lon="6.2523">
        <ele>318</ele>
        <time>2011-06-18T01:11:39Z</time>
      </trkpt>
      <trkpt lat="48.48541" lon="6.25232">
        <ele>318</ele>
        <time>2011-06-18T01:11:44Z</time>
      </trkpt>
      <trkpt lat="48.48362" lon="6.25308">
        <ele>323</ele>
        <time>2011-06-18T01:12:27Z</time>
      </trkpt>
      <trkpt lat="48.4824" lon="6.25399">
        <ele>325</ele>
        <time>2011-06-18T01:12:53Z</time>
      </trkpt>
      <trkpt lat="48.47338" lon="6.26163">
        <ele>331</ele>
        <time>2011-06-18T01:15:35Z</time>
      </trkpt>
      <trkpt lat="48.47085" lon="6.26368">
        <ele>321</ele>
        <time>2011-06-18T01:16:14Z</time>
      </trkpt>
      <trkpt lat="48.47085" lon="6.26368">
        <ele>321</ele>
        <time>2011-06-18T01:16:15Z</time>
      </trkpt>
      <trkpt lat="48.47031" lon="6.26414">
        <ele>321</ele>
        <time>2011-06-18T01:16:25Z</time>
      </trkpt>
      <trkpt lat="48.46941" lon="6.26096">
        <ele>323</ele>
        <time>2011-06-18T01:17:01Z</time>
      </trkpt>
      <trkpt lat="48.4692" lon="6.25997">
        <ele>324</ele>
        <time>2011-06-18T01:17:15Z</time>
      </trkpt>
      <trkpt lat="48.46912" lon="6.25923">
        <ele>325</ele>
        <time>2011-06-18T01:17:25Z</time>
      </trkpt>
      <trkpt lat="48.46906" lon="6.258">
        <ele>324</ele>
        <time>2011-06-18T01:17:36Z</time>
      </trkpt>
      <trkpt lat="48.46909" lon="6.25784">
        <ele>324</ele>
        <time>2011-06-18T01:17:38Z</time>
      </trkpt>
      <trkpt lat="48.46905" lon="6.25583">
        <ele>325</ele>
        <time>2011-06-18T01:17:59Z</time>
      </trkpt>
      <trkpt lat="48.46875" lon="6.25559">
        <ele>325</ele>
        <time>2011-06-18T01:18:05Z</time>
      </trkpt>
      <trkpt lat="48.46735" lon="6.25412">
        <ele>327</ele>
        <time>2011-06-18T01:18:35Z</time>
      </trkpt>
      <trkpt lat="48.46707" lon="6.25392">
        <ele>328</ele>
        <time>2011-06-18T01:18:46Z</time>
      </trkpt>
      <trkpt lat="48.46684" lon="6.25391">
        <ele>330</ele>
        <time>2011-06-18T01:18:55Z</time>
      </trkpt>
      <trkpt lat="48.46534" lon="6.25438">
        <ele>339</ele>
        <time>2011-06-18T01:19:50Z</time>
      </trkpt>
      <trkpt lat="48.46477" lon="6.25449">
        <ele>338</ele>
        <time>2011-06-18T01:19:58Z</time>
      </trkpt>
      <trkpt lat="48.46462" lon="6.25446">
        <ele>337</ele>
        <time>2011-06-18T01:20:00Z</time>
      </trkpt>
      <trkpt lat="48.46446" lon="6.25429">
        <ele>337</ele>
        <time>2011-06-18T01:20:03Z</time>
      </trkpt>
      <trkpt lat="48.46398" lon="6.25325">
        <ele>336</ele>
        <time>2011-06-18T01:20:14Z</time>
      </trkpt>
      <trkpt lat="48.46338" lon="6.2525">
        <ele>334</ele>
        <time>2011-06-18T01:20:24Z</time>
      </trkpt>
      <trkpt lat="48.46283" lon="6.25194">
        <ele>333</ele>
        <time>2011-06-18T01:20:33Z</time>
      </trkpt>
      <trkpt lat="48.46231" lon="6.25178">
        <ele>332</ele>
        <time>2011-06-18T01:20:40Z</time>
      </trkpt>
      <trkpt lat="48.46147" lon="6.25163">
        <ele>332</ele>
        <time>2011-06-18T01:20:52Z</time>
      </trkpt>
      <trkpt lat="48.45837" lon="6.25174">
        <ele>327</ele>
        <time>2011-06-18T01:21:33Z</time>
      </trkpt>
      <trkpt lat="48.45756" lon="6.2516">
        <ele>323</ele>
        <time>2011-06-18T01:21:44Z</time>
      </trkpt>
      <trkpt lat="48.45652" lon="6.25126">
        <ele>320</ele>
        <time>2011-06-18T01:21:58Z</time>
      </trkpt>
      <trkpt lat="48.4563" lon="6.25124">
        <ele>319</ele>
        <time>2011-06-18T01:22:01Z</time>
      </trkpt>
      <trkpt lat="48.45585" lon="6.25135">
        <ele>318</ele>
        <time>2011-06-18T01:22:07Z</time>
      </trkpt>
      <trkpt lat="48.45554" lon="6.2515">
        <ele>318</ele>
        <time>2011-06-18T01:22:12Z</time>
      </trkpt>
      <trkpt lat="48.45483" lon="6.2519">
        <ele>316</ele>
        <time>2011-06-18T01:22:22Z</time>
      </trkpt>
      <trkpt lat="48.45443" lon="6.25219">
        <ele>316</ele>
        <time>2011-06-18T01:22:28Z</time>
      </trkpt>
      <trkpt lat="48.45443" lon="6.25219">
        <ele>316</ele>
        <time>2011-06-18T01:22:29Z</time>
      </trkpt>
      <trkpt lat="48.45429" lon="6.25226">
        <ele>315</ele>
        <time>2011-06-18T01:22:31Z</time>
      </trkpt>
      <trkpt lat="48.45391" lon="6.25224">
        <ele>315</ele>
        <time>2011-06-18T01:22:36Z</time>
      </trkpt>
      <trkpt lat="48.45323" lon="6.25232">
        <ele>315</ele>
        <time>2011-06-18T01:22:45Z</time>
      </trkpt>
      <trkpt lat="48.45202" lon="6.25129">
        <ele>320</ele>
        <time>2011-06-18T01:23:23Z</time>
      </trkpt>
      <trkpt lat="48.45178" lon="6.25121">
        <ele>320</ele>
        <time>2011-06-18T01:23:27Z</time>
      </trkpt>
      <trkpt lat="48.45154" lon="6.25121">
        <ele>320</ele>
        <time>2011-06-18T01:23:30Z</time>
      </trkpt>
      <trkpt lat="48.44958" lon="6.25153">
        <ele>320</ele>
        <time>2011-06-18T01:23:56Z</time>
      </trkpt>
      <trkpt lat="48.44928" lon="6.25159">
        <ele>320</ele>
        <time>2011-06-18T01:24:01Z</time>
      </trkpt>
      <trkpt lat="48.44919" lon="6.25166">
        <ele>320</ele>
        <time>2011-06-18T01:24:02Z</time>
      </trkpt>
      <trkpt lat="48.44904" lon="6.25162">
        <ele>320</ele>
        <time>2011-06-18T01:24:04Z</time>
      </trkpt>
      <trkpt lat="48.44628" lon="6.25222">
        <ele>321</ele>
        <time>2011-06-18T01:24:45Z</time>
      </trkpt>
      <trkpt lat="48.44602" lon="6.25223">
        <ele>321</ele>
        <time>2011-06-18T01:24:51Z</time>
      </trkpt>
      <trkpt lat="48.44579" lon="6.2521">
        <ele>322</ele>
        <time>2011-06-18T01:24:56Z</time>
      </trkpt>
      <trkpt lat="48.44562" lon="6.25191">
        <ele>322</ele>
        <time>2011-06-18T01:25:01Z</time>
      </trkpt>
      <trkpt lat="48.44443" lon="6.25029">
        <ele>326</ele>
        <time>2011-06-18T01:25:36Z</time>
      </trkpt>
      <trkpt lat="48.4441" lon="6.25006">
        <ele>325</ele>
        <time>2011-06-18T01:25:41Z</time>
      </trkpt>
      <trkpt lat="48.43778" lon="6.24885">
        <ele>308</ele>
        <time>2011-06-18T01:27:06Z</time>
      </trkpt>
      <trkpt lat="48.43601" lon="6.2489">
        <ele>315</ele>
        <time>2011-06-18T01:27:57Z</time>
      </trkpt>
      <trkpt lat="48.43582" lon="6.24835">
        <ele>315</ele>
        <time>2011-06-18T01:28:06Z</time>
      </trkpt>
      <trkpt lat="48.43556" lon="6.24741">
        <ele>317</ele>
        <time>2011-06-18T01:28:20Z</time>
      </trkpt>
      <trkpt lat="48.4354" lon="6.24704">
        <ele>318</ele>
        <time>2011-06-18T01:28:29Z</time>
      </trkpt>
      <trkpt lat="48.43496" lon="6.24631">
        <ele>321</ele>
        <time>2011-06-18T01:28:49Z</time>
      </trkpt>
      <trkpt lat="48.43457" lon="6.24548">
        <ele>323</ele>
        <time>2011-06-18T01:29:08Z</time>
      </trkpt>
      <trkpt lat="48.43441" lon="6.24525">
        <ele>324</ele>
        <time>2011-06-18T01:29:14Z</time>
      </trkpt>
      <trkpt lat="48.43429" lon="6.24515">
        <ele>325</ele>
        <time>2011-06-18T01:29:18Z</time>
      </trkpt>
      <trkpt lat="48.43429" lon="6.24515">
        <ele>325</ele>
        <time>2011-06-18T01:29:19Z</time>
      </trkpt>
      <trkpt lat="48.43315" lon="6.24445">
        <ele>331</ele>
        <time>2011-06-18T01:30:00Z</time>
      </trkpt>
      <trkpt lat="48.43211" lon="6.24331">
        <ele>334</ele>
        <time>2011-06-18T01:30:29Z</time>
      </trkpt>
      <trkpt lat="48.43142" lon="6.2432">
        <ele>334</ele>
        <time>2011-06-18T01:30:41Z</time>
      </trkpt>
      <trkpt lat="48.43101" lon="6.24329">
        <ele>335</ele>
        <time>2011-06-18T01:30:48Z</time>
      </trkpt>
      <trkpt lat="48.4309" lon="6.24336">
        <ele>335</ele>
        <time>2011-06-18T01:30:50Z</time>
      </trkpt>
      <trkpt lat="48.43017" lon="6.24417">
        <ele>336</ele>
        <time>2011-06-18T01:31:06Z</time>
      </trkpt>
      <trkpt lat="48.42848" lon="6.24565">
        <ele>346</ele>
        <time>2011-06-18T01:32:12Z</time>
      </trkpt>
      <trkpt lat="48.42812" lon="6.24593">
        <ele>348</ele>
        <time>2011-06-18T01:32:28Z</time>
      </trkpt>
      <trkpt lat="48.42612" lon="6.24724">
        <ele>363</ele>
        <time>2011-06-18T01:33:54Z</time>
      </trkpt>
      <trkpt lat="48.42535" lon="6.24792">
        <ele>363</ele>
        <time>2011-06-18T01:34:08Z</time>
      </trkpt>
      <trkpt lat="48.42474" lon="6.24818">
        <ele>364</ele>
        <time>2011-06-18T01:34:19Z</time>
      </trkpt>
      <trkpt lat="48.42313" lon="6.24874">
        <ele>352</ele>
        <time>2011-06-18T01:34:41Z</time>
      </trkpt>
      <trkpt lat="48.4219" lon="6.24985">
        <ele>346</ele>
        <time>2011-06-18T01:35:00Z</time>
      </trkpt>
      <trkpt lat="48.4213" lon="6.25052">
        <ele>343</ele>
        <time>2011-06-18T01:35:10Z</time>
      </trkpt>
      <trkpt lat="48.4211" lon="6.25089">
        <ele>343</ele>
        <time>2011-06-18T01:35:14Z</time>
      </trkpt>
      <trkpt lat="48.421" lon="6.25161">
        <ele>340</ele>
        <time>2011-06-18T01:35:21Z</time>
      </trkpt>
      <trkpt lat="48.42091" lon="6.25191">
        <ele>339</ele>
        <time>2011-06-18T01:35:23Z</time>
      </trkpt>
      <trkpt lat="48.42075" lon="6.25215">
        <ele>338</ele>
        <time>2011-06-18T01:35:27Z</time>
      </trkpt>
      <trkpt lat="48.42058" lon="6.25223">
        <ele>337</ele>
        <time>2011-06-18T01:35:29Z</time>
      </trkpt>
      <trkpt lat="48.42042" lon="6.2522">
        <ele>336</ele>
        <time>2011-06-18T01:35:31Z</time>
      </trkpt>
      <trkpt lat="48.42025" lon="6.25208">
        <ele>335</ele>
        <time>2011-06-18T01:35:34Z</time>
      </trkpt>
      <trkpt lat="48.4195" lon="6.25114">
        <ele>332</ele>
        <time>2011-06-18T01:35:47Z</time>
      </trkpt>
      <trkpt lat="48.41906" lon="6.25046">
        <ele>328</ele>
        <time>2011-06-18T01:35:55Z</time>
      </trkpt>
      <trkpt lat="48.41756" lon="6.24897">
        <ele>317</ele>
        <time>2011-06-18T01:36:19Z</time>
      </trkpt>
      <trkpt lat="48.41635" lon="6.24708">
        <ele>303</ele>
        <time>2011-06-18T01:36:42Z</time>
      </trkpt>
      <trkpt lat="48.41617" lon="6.24633">
        <ele>299</ele>
        <time>2011-06-18T01:36:49Z</time>
      </trkpt>
      <trkpt lat="48.41609" lon="6.24626">
        <ele>299</ele>
        <time>2011-06-18T01:36:51Z</time>
      </trkpt>
      <trkpt lat="48.41589" lon="6.24626">
        <ele>298</ele>
        <time>2011-06-18T01:36:53Z</time>
      </trkpt>
      <trkpt lat="48.41581" lon="6.24675">
        <ele>296</ele>
        <time>2011-06-18T01:36:58Z</time>
      </trkpt>
      <trkpt lat="48.41572" lon="6.24824">
        <ele>290</ele>
        <time>2011-06-18T01:37:11Z</time>
      </trkpt>
      <trkpt lat="48.41543" lon="6.25018">
        <ele>280</ele>
        <time>2011-06-18T01:37:29Z</time>
      </trkpt>
      <trkpt lat="48.41512" lon="6.25132">
        <ele>274</ele>
        <time>2011-06-18T01:37:40Z</time>
      </trkpt>
      <trkpt lat="48.41456" lon="6.25299">
        <ele>266</ele>
        <time>2011-06-18T01:37:56Z</time>
      </trkpt>
      <trkpt lat="48.41448" lon="6.25311">
        <ele>265</ele>
        <time>2011-06-18T01:37:58Z</time>
      </trkpt>
      <trkpt lat="48.41452" lon="6.25323">
        <ele>264</ele>
        <time>2011-06-18T01:37:59Z</time>
      </trkpt>
      <trkpt lat="48.41421" lon="6.25439">
        <ele>258</ele>
        <time>2011-06-18T01:38:10Z</time>
      </trkpt>
      <trkpt lat="48.41419" lon="6.25516">
        <ele>256</ele>
        <time>2011-06-18T01:38:17Z</time>
      </trkpt>
      <trkpt lat="48.41395" lon="6.2561">
        <ele>255</ele>
        <time>2011-06-18T01:38:26Z</time>
      </trkpt>
      <trkpt lat="48.41395" lon="6.2561">
        <ele>255</ele>
        <time>2011-06-18T01:38:27Z</time>
      </trkpt>
      <trkpt lat="48.41374" lon="6.25681">
        <ele>255</ele>
        <time>2011-06-18T01:38:35Z</time>
      </trkpt>
      <trkpt lat="48.42542" lon="6.26325">
        <ele>261</ele>
        <time>2011-06-18T01:41:44Z</time>
      </trkpt>
      <trkpt lat="48.42722" lon="6.26465">
        <ele>270</ele>
        <time>2011-06-18T01:42:47Z</time>
      </trkpt>
      <trkpt lat="48.42784" lon="6.26507">
        <ele>270</ele>
        <time>2011-06-18T01:42:56Z</time>
      </trkpt>
      <trkpt lat="48.42893" lon="6.26612">
        <ele>270</ele>
        <time>2011-06-18T01:43:13Z</time>
      </trkpt>
      <trkpt lat="48.42988" lon="6.26682">
        <ele>276</ele>
        <time>2011-06-18T01:43:51Z</time>
      </trkpt>
      <trkpt lat="48.43017" lon="6.26709">
        <ele>275</ele>
        <time>2011-06-18T01:43:56Z</time>
      </trkpt>
      <trkpt lat="48.43043" lon="6.26742">
        <ele>274</ele>
        <time>2011-06-18T01:44:00Z</time>
      </trkpt>
      <trkpt lat="48.43062" lon="6.26781">
        <ele>274</ele>
        <time>2011-06-18T01:44:05Z</time>
      </trkpt>
      <trkpt lat="48.43087" lon="6.26855">
        <ele>273</ele>
        <time>2011-06-18T01:44:12Z</time>
      </trkpt>
      <trkpt lat="48.43141" lon="6.26953">
        <ele>272</ele>
        <time>2011-06-18T01:44:23Z</time>
      </trkpt>
      <trkpt lat="48.43161" lon="6.27042">
        <ele>270</ele>
        <time>2011-06-18T01:44:32Z</time>
      </trkpt>
      <trkpt lat="48.4318" lon="6.27185">
        <ele>267</ele>
        <time>2011-06-18T01:44:45Z</time>
      </trkpt>
      <trkpt lat="48.43192" lon="6.27243">
        <ele>265</ele>
        <time>2011-06-18T01:44:50Z</time>
      </trkpt>
      <trkpt lat="48.43251" lon="6.27386">
        <ele>261</ele>
        <time>2011-06-18T01:45:05Z</time>
      </trkpt>
      <trkpt lat="48.4331" lon="6.2751">
        <ele>264</ele>
        <time>2011-06-18T01:45:30Z</time>
      </trkpt>
      <trkpt lat="48.43387" lon="6.27605">
        <ele>263</ele>
        <time>2011-06-18T01:45:44Z</time>
      </trkpt>
      <trkpt lat="48.43532" lon="6.27772">
        <ele>261</ele>
        <time>2011-06-18T01:46:08Z</time>
      </trkpt>
      <trkpt lat="48.43592" lon="6.27808">
        <ele>261</ele>
        <time>2011-06-18T01:46:18Z</time>
      </trkpt>
      <trkpt lat="48.43757" lon="6.27887">
        <ele>262</ele>
        <time>2011-06-18T01:46:44Z</time>
      </trkpt>
      <trkpt lat="48.43794" lon="6.279">
        <ele>261</ele>
        <time>2011-06-18T01:46:49Z</time>
      </trkpt>
      <trkpt lat="48.43837" lon="6.27906">
        <ele>260</ele>
        <time>2011-06-18T01:46:55Z</time>
      </trkpt>
      <trkpt lat="48.43837" lon="6.27906">
        <ele>260</ele>
        <time>2011-06-18T01:46:56Z</time>
      </trkpt>
      <trkpt lat="48.43936" lon="6.27911">
        <ele>257</ele>
        <time>2011-06-18T01:47:09Z</time>
      </trkpt>
      <trkpt lat="48.4393" lon="6.2804">
        <ele>254</ele>
        <time>2011-06-18T01:47:20Z</time>
      </trkpt>
      <trkpt lat="48.43914" lon="6.28099">
        <ele>253</ele>
        <time>2011-06-18T01:47:26Z</time>
      </trkpt>
      <trkpt lat="48.43726" lon="6.28706">
        <ele>252</ele>
        <time>2011-06-18T01:48:25Z</time>
      </trkpt>
      <trkpt lat="48.43683" lon="6.28768">
        <ele>252</ele>
        <time>2011-06-18T01:48:33Z</time>
      </trkpt>
      <trkpt lat="48.43675" lon="6.28798">
        <ele>252</ele>
        <time>2011-06-18T01:48:36Z</time>
      </trkpt>
      <trkpt lat="48.43675" lon="6.28933">
        <ele>252</ele>
        <time>2011-06-18T01:48:48Z</time>
      </trkpt>
      <trkpt lat="48.43663" lon="6.29071">
        <ele>251</ele>
        <time>2011-06-18T01:49:00Z</time>
      </trkpt>
      <trkpt lat="48.4365" lon="6.29137">
        <ele>251</ele>
        <time>2011-06-18T01:49:07Z</time>
      </trkpt>
      <trkpt lat="48.43646" lon="6.29188">
        <ele>251</ele>
        <time>2011-06-18T01:49:11Z</time>
      </trkpt>
      <trkpt lat="48.43647" lon="6.2924">
        <ele>251</ele>
        <time>2011-06-18T01:49:16Z</time>
      </trkpt>
      <trkpt lat="48.43662" lon="6.29386">
        <ele>252</ele>
        <time>2011-06-18T01:49:33Z</time>
      </trkpt>
      <trkpt lat="48.43665" lon="6.29463">
        <ele>252</ele>
        <time>2011-06-18T01:49:40Z</time>
      </trkpt>
      <trkpt lat="48.43649" lon="6.29556">
        <ele>252</ele>
        <time>2011-06-18T01:49:48Z</time>
      </trkpt>
      <trkpt lat="48.43632" lon="6.29614">
        <ele>252</ele>
        <time>2011-06-18T01:49:54Z</time>
      </trkpt>
      <trkpt lat="48.43822" lon="6.29835">
        <ele>252</ele>
        <time>2011-06-18T01:50:26Z</time>
      </trkpt>
      <trkpt lat="48.44009" lon="6.30042">
        <ele>250</ele>
        <time>2011-06-18T01:50:57Z</time>
      </trkpt>
      <trkpt lat="48.44044" lon="6.30088">
        <ele>250</ele>
        <time>2011-06-18T01:51:06Z</time>
      </trkpt>
      <trkpt lat="48.44052" lon="6.30136">
        <ele>251</ele>
        <time>2011-06-18T01:51:12Z</time>
      </trkpt>
      <trkpt lat="48.4406" lon="6.30245">
        <ele>252</ele>
        <time>2011-06-18T01:51:25Z</time>
      </trkpt>
      <trkpt lat="48.44072" lon="6.30344">
        <ele>255</ele>
        <time>2011-06-18T01:51:49Z</time>
      </trkpt>
      <trkpt lat="48.44137" lon="6.30568">
        <ele>265</ele>
        <time>2011-06-18T01:52:48Z</time>
      </trkpt>
      <trkpt lat="48.44148" lon="6.30599">
        <ele>266</ele>
        <time>2011-06-18T01:52:55Z</time>
      </trkpt>
      <trkpt lat="48.44168" lon="6.30632">
        <ele>267</ele>
        <time>2011-06-18T01:53:05Z</time>
      </trkpt>
      <trkpt lat="48.44233" lon="6.30688">
        <ele>271</ele>
        <time>2011-06-18T01:53:29Z</time>
      </trkpt>
      <trkpt lat="48.44255" lon="6.30717">
        <ele>271</ele>
        <time>2011-06-18T01:53:35Z</time>
      </trkpt>
      <trkpt lat="48.44277" lon="6.3078">
        <ele>272</ele>
        <time>2011-06-18T01:53:45Z</time>
      </trkpt>
      <trkpt lat="48.44356" lon="6.31178">
        <ele>278</ele>
        <time>2011-06-18T01:54:44Z</time>
      </trkpt>
      <trkpt lat="48.44364" lon="6.31262">
        <ele>278</ele>
        <time>2011-06-18T01:54:55Z</time>
      </trkpt>
      <trkpt lat="48.44369" lon="6.31495">
        <ele>281</ele>
        <time>2011-06-18T01:55:24Z</time>
      </trkpt>
      <trkpt lat="48.44376" lon="6.31521">
        <ele>281</ele>
        <time>2011-06-18T01:55:27Z</time>
      </trkpt>
      <trkpt lat="48.44389" lon="6.3154">
        <ele>281</ele>
        <time>2011-06-18T01:55:29Z</time>
      </trkpt>
      <trkpt lat="48.44878" lon="6.31841">
        <ele>283</ele>
        <time>2011-06-18T01:56:48Z</time>
      </trkpt>
      <trkpt lat="48.44908" lon="6.31853">
        <ele>282</ele>
        <time>2011-06-18T01:56:52Z</time>
      </trkpt>
      <trkpt lat="48.44949" lon="6.31855">
        <ele>282</ele>
        <time>2011-06-18T01:56:57Z</time>
      </trkpt>
      <trkpt lat="48.4578" lon="6.31785">
        <ele>272</ele>
        <time>2011-06-18T01:58:48Z</time>
      </trkpt>
      <trkpt lat="48.4595" lon="6.31816">
        <ele>269</ele>
        <time>2011-06-18T01:59:11Z</time>
      </trkpt>
      <trkpt lat="48.46041" lon="6.31838">
        <ele>270</ele>
        <time>2011-06-18T01:59:28Z</time>
      </trkpt>
      <trkpt lat="48.46041" lon="6.31838">
        <ele>270</ele>
        <time>2011-06-18T01:59:29Z</time>
      </trkpt>
      <trkpt lat="48.46195" lon="6.31875">
        <ele>272</ele>
        <time>2011-06-18T01:59:57Z</time>
      </trkpt>
      <trkpt lat="48.46434" lon="6.31814">
        <ele>265</ele>
        <time>2011-06-18T02:00:30Z</time>
      </trkpt>
      <trkpt lat="48.46483" lon="6.31791">
        <ele>265</ele>
        <time>2011-06-18T02:00:37Z</time>
      </trkpt>
      <trkpt lat="48.46539" lon="6.31786">
        <ele>265</ele>
        <time>2011-06-18T02:00:44Z</time>
      </trkpt>
      <trkpt lat="48.47406" lon="6.31559">
        <ele>264</ele>
        <time>2011-06-18T02:02:42Z</time>
      </trkpt>
      <trkpt lat="48.47425" lon="6.31549">
        <ele>264</ele>
        <time>2011-06-18T02:02:44Z</time>
      </trkpt>
      <trkpt lat="48.47501" lon="6.3148">
        <ele>264</ele>
        <time>2011-06-18T02:02:56Z</time>
      </trkpt>
      <trkpt lat="48.47585" lon="6.3139">
        <ele>260</ele>
        <time>2011-06-18T02:03:10Z</time>
      </trkpt>
      <trkpt lat="48.47622" lon="6.31335">
        <ele>259</ele>
        <time>2011-06-18T02:03:17Z</time>
      </trkpt>
      <trkpt lat="48.47648" lon="6.3131">
        <ele>258</ele>
        <time>2011-06-18T02:03:21Z</time>
      </trkpt>
      <trkpt lat="48.47624" lon="6.31232">
        <ele>258</ele>
        <time>2011-06-18T02:03:29Z</time>
      </trkpt>
      <trkpt lat="48.47613" lon="6.31239">
        <ele>258</ele>
        <time>2011-06-18T02:03:30Z</time>
      </trkpt>
      <trkpt lat="48.47609" lon="6.31248">
        <ele>258</ele>
        <time>2011-06-18T02:03:31Z</time>
      </trkpt>
      <trkpt lat="48.4761" lon="6.31275">
        <ele>258</ele>
        <time>2011-06-18T02:03:34Z</time>
      </trkpt>
      <trkpt lat="48.47619" lon="6.31326">
        <ele>258</ele>
        <time>2011-06-18T02:03:38Z</time>
      </trkpt>
      <trkpt lat="48.47619" lon="6.31326">
        <ele>258</ele>
        <time>2011-06-18T02:03:39Z</time>
      </trkpt>
      <trkpt lat="48.47622" lon="6.31335">
        <ele>257</ele>
        <time>2011-06-18T02:03:40Z</time>
      </trkpt>
      <trkpt lat="48.47666" lon="6.31294">
        <ele>255</ele>
        <time>2011-06-18T02:03:47Z</time>
      </trkpt>
      <trkpt lat="48.47691" lon="6.31359">
        <ele>254</ele>
        <time>2011-06-18T02:03:54Z</time>
      </trkpt>
      <trkpt lat="48.47761" lon="6.31487">
        <ele>250</ele>
        <time>2011-06-18T02:04:08Z</time>
      </trkpt>
      <trkpt lat="48.47885" lon="6.31651">
        <ele>246</ele>
        <time>2011-06-18T02:04:30Z</time>
      </trkpt>
      <trkpt lat="48.48295" lon="6.32468">
        <ele>299</ele>
        <time>2011-06-18T02:09:33Z</time>
      </trkpt>
      <trkpt lat="48.48329" lon="6.32517">
        <ele>302</ele>
        <time>2011-06-18T02:09:55Z</time>
      </trkpt>
      <trkpt lat="48.48449" lon="6.32669">
        <ele>316</ele>
        <time>2011-06-18T02:11:08Z</time>
      </trkpt>
      <trkpt lat="48.48493" lon="6.32735">
        <ele>320</ele>
        <time>2011-06-18T02:11:35Z</time>
      </trkpt>
      <trkpt lat="48.48518" lon="6.32797">
        <ele>324</ele>
        <time>2011-06-18T02:11:55Z</time>
      </trkpt>
      <trkpt lat="48.4853" lon="6.32883">
        <ele>327</ele>
        <time>2011-06-18T02:12:15Z</time>
      </trkpt>
      <trkpt lat="48.48545" lon="6.32931">
        <ele>329</ele>
        <time>2011-06-18T02:12:28Z</time>
      </trkpt>
      <trkpt lat="48.48569" lon="6.32961">
        <ele>329</ele>
        <time>2011-06-18T02:12:35Z</time>
      </trkpt>
      <trkpt lat="48.48605" lon="6.32986">
        <ele>331</ele>
        <time>2011-06-18T02:12:45Z</time>
      </trkpt>
      <trkpt lat="48.4863" lon="6.33015">
        <ele>332</ele>
        <time>2011-06-18T02:12:53Z</time>
      </trkpt>
      <trkpt lat="48.4971" lon="6.34758">
        <ele>352</ele>
        <time>2011-06-18T02:17:44Z</time>
      </trkpt>
      <trkpt lat="48.49737" lon="6.34783">
        <ele>350</ele>
        <time>2011-06-18T02:17:49Z</time>
      </trkpt>
      <trkpt lat="48.49778" lon="6.34793">
        <ele>348</ele>
        <time>2011-06-18T02:17:54Z</time>
      </trkpt>
      <trkpt lat="48.49811" lon="6.3478">
        <ele>347</ele>
        <time>2011-06-18T02:17:59Z</time>
      </trkpt>
      <trkpt lat="48.49863" lon="6.34735">
        <ele>346</ele>
        <time>2011-06-18T02:18:07Z</time>
      </trkpt>
      <trkpt lat="48.49889" lon="6.34725">
        <ele>346</ele>
        <time>2011-06-18T02:18:10Z</time>
      </trkpt>
      <trkpt lat="48.49929" lon="6.34729">
        <ele>346</ele>
        <time>2011-06-18T02:18:16Z</time>
      </trkpt>
      <trkpt lat="48.50181" lon="6.3488">
        <ele>338</ele>
        <time>2011-06-18T02:18:52Z</time>
      </trkpt>
      <trkpt lat="48.50231" lon="6.34923">
        <ele>336</ele>
        <time>2011-06-18T02:19:00Z</time>
      </trkpt>
      <trkpt lat="48.50277" lon="6.34985">
        <ele>335</ele>
        <time>2011-06-18T02:19:08Z</time>
      </trkpt>
      <trkpt lat="48.50303" lon="6.35037">
        <ele>332</ele>
        <time>2011-06-18T02:19:14Z</time>
      </trkpt>
      <trkpt lat="48.50336" lon="6.35134">
        <ele>329</ele>
        <time>2011-06-18T02:19:23Z</time>
      </trkpt>
      <trkpt lat="48.50384" lon="6.35295">
        <ele>325</ele>
        <time>2011-06-18T02:19:39Z</time>
      </trkpt>
      <trkpt lat="48.50394" lon="6.35362">
        <ele>324</ele>
        <time>2011-06-18T02:19:45Z</time>
      </trkpt>
      <trkpt lat="48.50394" lon="6.35407">
        <ele>323</ele>
        <time>2011-06-18T02:19:49Z</time>
      </trkpt>
      <trkpt lat="48.50389" lon="6.35457">
        <ele>323</ele>
        <time>2011-06-18T02:19:53Z</time>
      </trkpt>
      <trkpt lat="48.50347" lon="6.35601">
        <ele>317</ele>
        <time>2011-06-18T02:20:07Z</time>
      </trkpt>
      <trkpt lat="48.50335" lon="6.35686">
        <ele>314</ele>
        <time>2011-06-18T02:20:15Z</time>
      </trkpt>
      <trkpt lat="48.50319" lon="6.35872">
        <ele>310</ele>
        <time>2011-06-18T02:20:32Z</time>
      </trkpt>
      <trkpt lat="48.50319" lon="6.35924">
        <ele>309</ele>
        <time>2011-06-18T02:20:36Z</time>
      </trkpt>
      <trkpt lat="48.50328" lon="6.3598">
        <ele>308</ele>
        <time>2011-06-18T02:20:41Z</time>
      </trkpt>
      <trkpt lat="48.50346" lon="6.36044">
        <ele>307</ele>
        <time>2011-06-18T02:20:48Z</time>
      </trkpt>
      <trkpt lat="48.50441" lon="6.36335">
        <ele>305</ele>
        <time>2011-06-18T02:21:16Z</time>
      </trkpt>
      <trkpt lat="48.50574" lon="6.36631">
        <ele>306</ele>
        <time>2011-06-18T02:21:52Z</time>
      </trkpt>
      <trkpt lat="48.50752" lon="6.36997">
        <ele>307</ele>
        <time>2011-06-18T02:22:36Z</time>
      </trkpt>
      <trkpt lat="48.50789" lon="6.37123">
        <ele>302</ele>
        <time>2011-06-18T02:22:48Z</time>
      </trkpt>
      <trkpt lat="48.50789" lon="6.37123">
        <ele>302</ele>
        <time>2011-06-18T02:22:49Z</time>
      </trkpt>
      <trkpt lat="48.50865" lon="6.3738">
        <ele>293</ele>
        <time>2011-06-18T02:23:14Z</time>
      </trkpt>
      <trkpt lat="48.50888" lon="6.37418">
        <ele>292</ele>
        <time>2011-06-18T02:23:19Z</time>
      </trkpt>
      <trkpt lat="48.5103" lon="6.37617">
        <ele>288</ele>
        <time>2011-06-18T02:23:45Z</time>
      </trkpt>
      <trkpt lat="48.51108" lon="6.37827">
        <ele>282</ele>
        <time>2011-06-18T02:24:06Z</time>
      </trkpt>
      <trkpt lat="48.51623" lon="6.40068">
        <ele>279</ele>
        <time>2011-06-18T02:27:36Z</time>
      </trkpt>
      <trkpt lat="48.5163" lon="6.40053">
        <ele>279</ele>
        <time>2011-06-18T02:27:37Z</time>
      </trkpt>
      <trkpt lat="48.51745" lon="6.39919">
        <ele>279</ele>
        <time>2011-06-18T02:27:57Z</time>
      </trkpt>
      <trkpt lat="48.5184" lon="6.39871">
        <ele>274</ele>
        <time>2011-06-18T02:28:10Z</time>
      </trkpt>
      <trkpt lat="48.51911" lon="6.3981">
        <ele>272</ele>
        <time>2011-06-18T02:28:21Z</time>
      </trkpt>
      <trkpt lat="48.5194" lon="6.39776">
        <ele>272</ele>
        <time>2011-06-18T02:28:26Z</time>
      </trkpt>
      <trkpt lat="48.52007" lon="6.39678">
        <ele>273</ele>
        <time>2011-06-18T02:28:43Z</time>
      </trkpt>
      <trkpt lat="48.5211" lon="6.39541">
        <ele>276</ele>
        <time>2011-06-18T02:29:13Z</time>
      </trkpt>
      <trkpt lat="48.52159" lon="6.39494">
        <ele>275</ele>
        <time>2011-06-18T02:29:21Z</time>
      </trkpt>
      <trkpt lat="48.52187" lon="6.39475">
        <ele>274</ele>
        <time>2011-06-18T02:29:25Z</time>
      </trkpt>
      <trkpt lat="48.52276" lon="6.3943">
        <ele>273</ele>
        <time>2011-06-18T02:29:37Z</time>
      </trkpt>
      <trkpt lat="48.5235" lon="6.39379">
        <ele>270</ele>
        <time>2011-06-18T02:29:48Z</time>
      </trkpt>
      <trkpt lat="48.52418" lon="6.39355">
        <ele>269</ele>
        <time>2011-06-18T02:29:57Z</time>
      </trkpt>
      <trkpt lat="48.52497" lon="6.39305">
        <ele>265</ele>
        <time>2011-06-18T02:30:09Z</time>
      </trkpt>
      <trkpt lat="48.52542" lon="6.39289">
        <ele>264</ele>
        <time>2011-06-18T02:30:15Z</time>
      </trkpt>
      <trkpt lat="48.52568" lon="6.39283">
        <ele>263</ele>
        <time>2011-06-18T02:30:19Z</time>
      </trkpt>
      <trkpt lat="48.52607" lon="6.39284">
        <ele>263</ele>
        <time>2011-06-18T02:30:24Z</time>
      </trkpt>
      <trkpt lat="48.52682" lon="6.39317">
        <ele>262</ele>
        <time>2011-06-18T02:30:34Z</time>
      </trkpt>
      <trkpt lat="48.52725" lon="6.39324">
        <ele>261</ele>
        <time>2011-06-18T02:30:40Z</time>
      </trkpt>
      <trkpt lat="48.52775" lon="6.39321">
        <ele>260</ele>
        <time>2011-06-18T02:30:47Z</time>
      </trkpt>
      <trkpt lat="48.52818" lon="6.39304">
        <ele>259</ele>
        <time>2011-06-18T02:30:53Z</time>
      </trkpt>
      <trkpt lat="48.52837" lon="6.39291">
        <ele>258</ele>
        <time>2011-06-18T02:30:55Z</time>
      </trkpt>
      <trkpt lat="48.52878" lon="6.39235">
        <ele>258</ele>
        <time>2011-06-18T02:31:03Z</time>
      </trkpt>
      <trkpt lat="48.52938" lon="6.39172">
        <ele>259</ele>
        <time>2011-06-18T02:31:17Z</time>
      </trkpt>
      <trkpt lat="48.52989" lon="6.39102">
        <ele>260</ele>
        <time>2011-06-18T02:31:30Z</time>
      </trkpt>
      <trkpt lat="48.53042" lon="6.39018">
        <ele>260</ele>
        <time>2011-06-18T02:31:43Z</time>
      </trkpt>
      <trkpt lat="48.53072" lon="6.38981">
        <ele>261</ele>
        <time>2011-06-18T02:31:49Z</time>
      </trkpt>
      <trkpt lat="48.53173" lon="6.38897">
        <ele>261</ele>
        <time>2011-06-18T02:32:05Z</time>
      </trkpt>
      <trkpt lat="48.53239" lon="6.38824">
        <ele>260</ele>
        <time>2011-06-18T02:32:16Z</time>
      </trkpt>
      <trkpt lat="48.53302" lon="6.38802">
        <ele>260</ele>
        <time>2011-06-18T02:32:24Z</time>
      </trkpt>
      <trkpt lat="48.53355" lon="6.38798">
        <ele>260</ele>
        <time>2011-06-18T02:32:33Z</time>
      </trkpt>
      <trkpt lat="48.53413" lon="6.38775">
        <ele>261</ele>
        <time>2011-06-18T02:32:43Z</time>
      </trkpt>
      <trkpt lat="48.5344" lon="6.38774">
        <ele>261</ele>
        <time>2011-06-18T02:32:47Z</time>
      </trkpt>
      <trkpt lat="48.5349" lon="6.38784">
        <ele>261</ele>
        <time>2011-06-18T02:32:54Z</time>
      </trkpt>
      <trkpt lat="48.53532" lon="6.38782">
        <ele>261</ele>
        <time>2011-06-18T02:32:59Z</time>
      </trkpt>
      <trkpt lat="48.53618" lon="6.38744">
        <ele>258</ele>
        <time>2011-06-18T02:33:11Z</time>
      </trkpt>
      <trkpt lat="48.53684" lon="6.38737">
        <ele>257</ele>
        <time>2011-06-18T02:33:20Z</time>
      </trkpt>
      <trkpt lat="48.53722" lon="6.38715">
        <ele>256</ele>
        <time>2011-06-18T02:33:25Z</time>
      </trkpt>
      <trkpt lat="48.53756" lon="6.38704">
        <ele>255</ele>
        <time>2011-06-18T02:33:30Z</time>
      </trkpt>
      <trkpt lat="48.53814" lon="6.38712">
        <ele>254</ele>
        <time>2011-06-18T02:33:38Z</time>
      </trkpt>
      <trkpt lat="48.53884" lon="6.38746">
        <ele>253</ele>
        <time>2011-06-18T02:33:48Z</time>
      </trkpt>
      <trkpt lat="48.53904" lon="6.38747">
        <ele>253</ele>
        <time>2011-06-18T02:33:50Z</time>
      </trkpt>
      <trkpt lat="48.53915" lon="6.38735">
        <ele>252</ele>
        <time>2011-06-18T02:33:52Z</time>
      </trkpt>
      <trkpt lat="48.53922" lon="6.38707">
        <ele>252</ele>
        <time>2011-06-18T02:33:55Z</time>
      </trkpt>
      <trkpt lat="48.5394" lon="6.38596">
        <ele>251</ele>
        <time>2011-06-18T02:34:05Z</time>
      </trkpt>
      <trkpt lat="48.53948" lon="6.38568">
        <ele>252</ele>
        <time>2011-06-18T02:34:12Z</time>
      </trkpt>
      <trkpt lat="48.53971" lon="6.38509">
        <ele>254</ele>
        <time>2011-06-18T02:34:29Z</time>
      </trkpt>
      <trkpt lat="48.54016" lon="6.38421">
        <ele>259</ele>
        <time>2011-06-18T02:34:56Z</time>
      </trkpt>
      <trkpt lat="48.54031" lon="6.3838">
        <ele>258</ele>
        <time>2011-06-18T02:35:00Z</time>
      </trkpt>
      <trkpt lat="48.5406" lon="6.38399">
        <ele>257</ele>
        <time>2011-06-18T02:35:04Z</time>
      </trkpt>
      <trkpt lat="48.5408" lon="6.38405">
        <ele>256</ele>
        <time>2011-06-18T02:35:07Z</time>
      </trkpt>
      <trkpt lat="48.54117" lon="6.38405">
        <ele>256</ele>
        <time>2011-06-18T02:35:12Z</time>
      </trkpt>
      <trkpt lat="48.54188" lon="6.38421">
        <ele>251</ele>
        <time>2011-06-18T02:35:21Z</time>
      </trkpt>
      <trkpt lat="48.54283" lon="6.38427">
        <ele>246</ele>
        <time>2011-06-18T02:35:34Z</time>
      </trkpt>
      <trkpt lat="48.543" lon="6.38424">
        <ele>245</ele>
        <time>2011-06-18T02:35:36Z</time>
      </trkpt>
      <trkpt lat="48.54314" lon="6.38415">
        <ele>244</ele>
        <time>2011-06-18T02:35:38Z</time>
      </trkpt>
      <trkpt lat="48.54327" lon="6.38399">
        <ele>244</ele>
        <time>2011-06-18T02:35:40Z</time>
      </trkpt>
      <trkpt lat="48.54352" lon="6.38354">
        <ele>242</ele>
        <time>2011-06-18T02:35:46Z</time>
      </trkpt>
      <trkpt lat="48.54374" lon="6.38333">
        <ele>242</ele>
        <time>2011-06-18T02:35:49Z</time>
      </trkpt>
      <trkpt lat="48.54393" lon="6.38327">
        <ele>241</ele>
        <time>2011-06-18T02:35:52Z</time>
      </trkpt>
      <trkpt lat="48.54434" lon="6.38331">
        <ele>240</ele>
        <time>2011-06-18T02:35:57Z</time>
      </trkpt>
      <trkpt lat="48.5454" lon="6.38383">
        <ele>238</ele>
        <time>2011-06-18T02:36:12Z</time>
      </trkpt>
      <trkpt lat="48.54556" lon="6.38408">
        <ele>238</ele>
        <time>2011-06-18T02:36:16Z</time>
      </trkpt>
      <trkpt lat="48.54578" lon="6.38487">
        <ele>238</ele>
        <time>2011-06-18T02:36:25Z</time>
      </trkpt>
      <trkpt lat="48.54607" lon="6.38529">
        <ele>239</ele>
        <time>2011-06-18T02:36:32Z</time>
      </trkpt>
      <trkpt lat="48.54634" lon="6.38549">
        <ele>240</ele>
        <time>2011-06-18T02:36:40Z</time>
      </trkpt>
      <trkpt lat="48.5471" lon="6.38589">
        <ele>243</ele>
        <time>2011-06-18T02:37:03Z</time>
      </trkpt>
      <trkpt lat="48.54771" lon="6.38652">
        <ele>243</ele>
        <time>2011-06-18T02:37:13Z</time>
      </trkpt>
      <trkpt lat="48.54789" lon="6.38664">
        <ele>243</ele>
        <time>2011-06-18T02:37:15Z</time>
      </trkpt>
      <trkpt lat="48.54823" lon="6.38672">
        <ele>241</ele>
        <time>2011-06-18T02:37:20Z</time>
      </trkpt>
      <trkpt lat="48.54893" lon="6.38673">
        <ele>238</ele>
        <time>2011-06-18T02:37:29Z</time>
      </trkpt>
      <trkpt lat="48.55007" lon="6.38648">
        <ele>233</ele>
        <time>2011-06-18T02:37:45Z</time>
      </trkpt>
      <trkpt lat="48.55074" lon="6.38645">
        <ele>233</ele>
        <time>2011-06-18T02:37:56Z</time>
      </trkpt>
      <trkpt lat="48.55194" lon="6.38613">
        <ele>235</ele>
        <time>2011-06-18T02:38:18Z</time>
      </trkpt>
      <trkpt lat="48.55226" lon="6.38614">
        <ele>234</ele>
        <time>2011-06-18T02:38:22Z</time>
      </trkpt>
      <trkpt lat="48.55318" lon="6.38648">
        <ele>232</ele>
        <time>2011-06-18T02:38:35Z</time>
      </trkpt>
      <trkpt lat="48.55344" lon="6.38663">
        <ele>231</ele>
        <time>2011-06-18T02:38:39Z</time>
      </trkpt>
      <trkpt lat="48.55504" lon="6.38768">
        <ele>225</ele>
        <time>2011-06-18T02:39:02Z</time>
      </trkpt>
      <trkpt lat="48.55601" lon="6.38857">
        <ele>220</ele>
        <time>2011-06-18T02:39:17Z</time>
      </trkpt>
      <trkpt lat="48.55628" lon="6.38862">
        <ele>219</ele>
        <time>2011-06-18T02:39:21Z</time>
      </trkpt>
      <trkpt lat="48.55628" lon="6.38862">
        <ele>219</ele>
        <time>2011-06-18T02:39:22Z</time>
      </trkpt>
      <trkpt lat="48.55675" lon="6.38853">
        <ele>219</ele>
        <time>2011-06-18T02:39:28Z</time>
      </trkpt>
      <trkpt lat="48.55693" lon="6.38855">
        <ele>219</ele>
        <time>2011-06-18T02:39:30Z</time>
      </trkpt>
      <trkpt lat="48.55717" lon="6.38736">
        <ele>219</ele>
        <time>2011-06-18T02:39:41Z</time>
      </trkpt>
      <trkpt lat="48.5584" lon="6.38785">
        <ele>213</ele>
        <time>2011-06-18T02:39:58Z</time>
      </trkpt>
      <trkpt lat="48.56111" lon="6.38848">
        <ele>212</ele>
        <time>2011-06-18T02:40:35Z</time>
      </trkpt>
      <trkpt lat="48.5614" lon="6.38867">
        <ele>212</ele>
        <time>2011-06-18T02:40:43Z</time>
      </trkpt>
      <trkpt lat="48.56303" lon="6.39037">
        <ele>218</ele>
        <time>2011-06-18T02:41:30Z</time>
      </trkpt>
      <trkpt lat="48.56331" lon="6.39045">
        <ele>218</ele>
        <time>2011-06-18T02:41:34Z</time>
      </trkpt>
      <trkpt lat="48.56349" lon="6.39041">
        <ele>218</ele>
        <time>2011-06-18T02:41:37Z</time>
      </trkpt>
      <trkpt lat="48.56358" lon="6.39024">
        <ele>218</ele>
        <time>2011-06-18T02:41:40Z</time>
      </trkpt>
      <trkpt lat="48.56391" lon="6.38924">
        <ele>219</ele>
        <time>2011-06-18T02:41:52Z</time>
      </trkpt>
      <trkpt lat="48.56405" lon="6.38906">
        <ele>219</ele>
        <time>2011-06-18T02:41:54Z</time>
      </trkpt>
      <trkpt lat="48.56469" lon="6.38847">
        <ele>219</ele>
        <time>2011-06-18T02:42:04Z</time>
      </trkpt>
      <trkpt lat="48.56541" lon="6.388">
        <ele>217</ele>
        <time>2011-06-18T02:42:15Z</time>
      </trkpt>
      <trkpt lat="48.56573" lon="6.3876">
        <ele>216</ele>
        <time>2011-06-18T02:42:20Z</time>
      </trkpt>
      <trkpt lat="48.56619" lon="6.38687">
        <ele>217</ele>
        <time>2011-06-18T02:42:35Z</time>
      </trkpt>
      <trkpt lat="48.56665" lon="6.38599">
        <ele>219</ele>
        <time>2011-06-18T02:42:51Z</time>
      </trkpt>
      <trkpt lat="48.56703" lon="6.3855">
        <ele>219</ele>
        <time>2011-06-18T02:43:00Z</time>
      </trkpt>
      <trkpt lat="48.56724" lon="6.38534">
        <ele>219</ele>
        <time>2011-06-18T02:43:04Z</time>
      </trkpt>
      <trkpt lat="48.56827" lon="6.38477">
        <ele>221</ele>
        <time>2011-06-18T02:43:24Z</time>
      </trkpt>
      <trkpt lat="48.56845" lon="6.38476">
        <ele>220</ele>
        <time>2011-06-18T02:43:26Z</time>
      </trkpt>
      <trkpt lat="48.56855" lon="6.38478">
        <ele>220</ele>
        <time>2011-06-18T02:43:27Z</time>
      </trkpt>
      <trkpt lat="48.5686" lon="6.38467">
        <ele>220</ele>
        <time>2011-06-18T02:43:28Z</time>
      </trkpt>
      <trkpt lat="48.56876" lon="6.38452">
        <ele>220</ele>
        <time>2011-06-18T02:43:31Z</time>
      </trkpt>
      <trkpt lat="48.57009" lon="6.38382">
        <ele>220</ele>
        <time>2011-06-18T02:43:50Z</time>
      </trkpt>
      <trkpt lat="48.5706" lon="6.3834">
        <ele>218</ele>
        <time>2011-06-18T02:43:58Z</time>
      </trkpt>
      <trkpt lat="48.57096" lon="6.38304">
        <ele>218</ele>
        <time>2011-06-18T02:44:03Z</time>
      </trkpt>
      <trkpt lat="48.57214" lon="6.38148">
        <ele>217</ele>
        <time>2011-06-18T02:44:24Z</time>
      </trkpt>
      <trkpt lat="48.57348" lon="6.37997">
        <ele>224</ele>
        <time>2011-06-18T02:45:15Z</time>
      </trkpt>
      <trkpt lat="48.57348" lon="6.37997">
        <ele>224</ele>
        <time>2011-06-18T02:45:16Z</time>
      </trkpt>
      <trkpt lat="48.57398" lon="6.37958">
        <ele>222</ele>
        <time>2011-06-18T02:45:23Z</time>
      </trkpt>
      <trkpt lat="48.57546" lon="6.37915">
        <ele>220</ele>
        <time>2011-06-18T02:45:43Z</time>
      </trkpt>
      <trkpt lat="48.57608" lon="6.37888">
        <ele>221</ele>
        <time>2011-06-18T02:45:56Z</time>
      </trkpt>
      <trkpt lat="48.57753" lon="6.37786">
        <ele>224</ele>
        <time>2011-06-18T02:46:29Z</time>
      </trkpt>
      <trkpt lat="48.57965" lon="6.37651">
        <ele>223</ele>
        <time>2011-06-18T02:47:00Z</time>
      </trkpt>
      <trkpt lat="48.58171" lon="6.37468">
        <ele>222</ele>
        <time>2011-06-18T02:47:32Z</time>
      </trkpt>
      <trkpt lat="48.58325" lon="6.37294">
        <ele>221</ele>
        <time>2011-06-18T02:47:58Z</time>
      </trkpt>
      <trkpt lat="48.58394" lon="6.37194">
        <ele>221</ele>
        <time>2011-06-18T02:48:10Z</time>
      </trkpt>
      <trkpt lat="48.58426" lon="6.37156">
        <ele>221</ele>
        <time>2011-06-18T02:48:16Z</time>
      </trkpt>
      <trkpt lat="48.58774" lon="6.36877">
        <ele>222</ele>
        <time>2011-06-18T02:49:12Z</time>
      </trkpt>
      <trkpt lat="48.58865" lon="6.36781">
        <ele>223</ele>
        <time>2011-06-18T02:49:31Z</time>
      </trkpt>
      <trkpt lat="48.59048" lon="6.36574">
        <ele>223</ele>
        <time>2011-06-18T02:50:02Z</time>
      </trkpt>
      <trkpt lat="48.59068" lon="6.36563">
        <ele>222</ele>
        <time>2011-06-18T02:50:05Z</time>
      </trkpt>
      <trkpt lat="48.59142" lon="6.36544">
        <ele>222</ele>
        <time>2011-06-18T02:50:15Z</time>
      </trkpt>
      <trkpt lat="48.59215" lon="6.36495">
        <ele>222</ele>
        <time>2011-06-18T02:50:27Z</time>
      </trkpt>
      <trkpt lat="48.59328" lon="6.36464">
        <ele>223</ele>
        <time>2011-06-18T02:50:45Z</time>
      </trkpt>
      <trkpt lat="48.594" lon="6.36424">
        <ele>223</ele>
        <time>2011-06-18T02:50:57Z</time>
      </trkpt>
      <trkpt lat="48.59677" lon="6.36388">
        <ele>225</ele>
        <time>2011-06-18T02:51:40Z</time>
      </trkpt>
      <trkpt lat="48.59688" lon="6.36552">
        <ele>226</ele>
        <time>2011-06-18T02:51:59Z</time>
      </trkpt>
      <trkpt lat="48.597" lon="6.36666">
        <ele>226</ele>
        <time>2011-06-18T02:52:09Z</time>
      </trkpt>
      <trkpt lat="48.5971" lon="6.36714">
        <ele>226</ele>
        <time>2011-06-18T02:52:13Z</time>
      </trkpt>
      <trkpt lat="48.59738" lon="6.36806">
        <ele>226</ele>
        <time>2011-06-18T02:52:25Z</time>
      </trkpt>
      <trkpt lat="48.59745" lon="6.36859">
        <ele>227</ele>
        <time>2011-06-18T02:52:31Z</time>
      </trkpt>
      <trkpt lat="48.59745" lon="6.36897">
        <ele>227</ele>
        <time>2011-06-18T02:52:36Z</time>
      </trkpt>
      <trkpt lat="48.59729" lon="6.37009">
        <ele>229</ele>
        <time>2011-06-18T02:52:52Z</time>
      </trkpt>
      <trkpt lat="48.59712" lon="6.37346">
        <ele>230</ele>
        <time>2011-06-18T02:53:26Z</time>
      </trkpt>
      <trkpt lat="48.59718" lon="6.37493">
        <ele>230</ele>
        <time>2011-06-18T02:53:39Z</time>
      </trkpt>
      <trkpt lat="48.59746" lon="6.37806">
        <ele>228</ele>
        <time>2011-06-18T02:54:07Z</time>
      </trkpt>
      <trkpt lat="48.59746" lon="6.37862">
        <ele>229</ele>
        <time>2011-06-18T02:54:16Z</time>
      </trkpt>
      <trkpt lat="48.59741" lon="6.37893">
        <ele>229</ele>
        <time>2011-06-18T02:54:21Z</time>
      </trkpt>
      <trkpt lat="48.59718" lon="6.37959">
        <ele>231</ele>
        <time>2011-06-18T02:54:34Z</time>
      </trkpt>
      <trkpt lat="48.59711" lon="6.38003">
        <ele>231</ele>
        <time>2011-06-18T02:54:40Z</time>
      </trkpt>
      <trkpt lat="48.59711" lon="6.38047">
        <ele>232</ele>
        <time>2011-06-18T02:54:46Z</time>
      </trkpt>
      <trkpt lat="48.59778" lon="6.38365">
        <ele>236</ele>
        <time>2011-06-18T02:55:31Z</time>
      </trkpt>
      <trkpt lat="48.59794" lon="6.38579">
        <ele>236</ele>
        <time>2011-06-18T02:55:50Z</time>
      </trkpt>
      <trkpt lat="48.598" lon="6.38621">
        <ele>236</ele>
        <time>2011-06-18T02:55:57Z</time>
      </trkpt>
      <trkpt lat="48.59816" lon="6.38691">
        <ele>238</ele>
        <time>2011-06-18T02:56:09Z</time>
      </trkpt>
      <trkpt lat="48.59847" lon="6.38781">
        <ele>240</ele>
        <time>2011-06-18T02:56:25Z</time>
      </trkpt>
      <trkpt lat="48.60004" lon="6.39153">
        <ele>244</ele>
        <time>2011-06-18T02:57:20Z</time>
      </trkpt>
      <trkpt lat="48.60054" lon="6.39258">
        <ele>245</ele>
        <time>2011-06-18T02:57:36Z</time>
      </trkpt>
      <trkpt lat="48.60054" lon="6.39258">
        <ele>245</ele>
        <time>2011-06-18T02:57:37Z</time>
      </trkpt>
      <trkpt lat="48.60078" lon="6.39301">
        <ele>246</ele>
        <time>2011-06-18T02:57:46Z</time>
      </trkpt>
      <trkpt lat="48.60181" lon="6.39436">
        <ele>250</ele>
        <time>2011-06-18T02:58:20Z</time>
      </trkpt>
      <trkpt lat="48.60199" lon="6.3947">
        <ele>250</ele>
        <time>2011-06-18T02:58:27Z</time>
      </trkpt>
      <trkpt lat="48.60221" lon="6.39557">
        <ele>252</ele>
        <time>2011-06-18T02:58:44Z</time>
      </trkpt>
      <trkpt lat="48.60254" lon="6.39738">
        <ele>257</ele>
        <time>2011-06-18T02:59:17Z</time>
      </trkpt>
      <trkpt lat="48.60296" lon="6.39728">
        <ele>257</ele>
        <time>2011-06-18T02:59:24Z</time>
      </trkpt>
      <trkpt lat="48.60326" lon="6.39714">
        <ele>257</ele>
        <time>2011-06-18T02:59:29Z</time>
      </trkpt>
      <trkpt lat="48.60365" lon="6.39691">
        <ele>258</ele>
        <time>2011-06-18T02:59:36Z</time>
      </trkpt>
      <trkpt lat="48.60454" lon="6.39626">
        <ele>258</ele>
        <time>2011-06-18T02:59:49Z</time>
      </trkpt>
      <trkpt lat="48.60474" lon="6.39621">
        <ele>258</ele>
        <time>2011-06-18T02:59:53Z</time>
      </trkpt>
      <trkpt lat="48.60502" lon="6.39612">
        <ele>258</ele>
        <time>2011-06-18T02:59:58Z</time>
      </trkpt>
      <trkpt lat="48.60585" lon="6.39538">
        <ele>260</ele>
        <time>2011-06-18T03:00:17Z</time>
      </trkpt>
      <trkpt lat="48.60618" lon="6.39535">
        <ele>261</ele>
        <time>2011-06-18T03:00:27Z</time>
      </trkpt>
      <trkpt lat="48.60657" lon="6.39556">
        <ele>263</ele>
        <time>2011-06-18T03:00:40Z</time>
      </trkpt>
      <trkpt lat="48.60702" lon="6.39611">
        <ele>266</ele>
        <time>2011-06-18T03:00:58Z</time>
      </trkpt>
      <trkpt lat="48.60731" lon="6.39655">
        <ele>269</ele>
        <time>2011-06-18T03:01:17Z</time>
      </trkpt>
      <trkpt lat="48.60758" lon="6.39692">
        <ele>272</ele>
        <time>2011-06-18T03:01:33Z</time>
      </trkpt>
      <trkpt lat="48.60778" lon="6.39708">
        <ele>274</ele>
        <time>2011-06-18T03:01:44Z</time>
      </trkpt>
      <trkpt lat="48.60807" lon="6.39709">
        <ele>277</ele>
        <time>2011-06-18T03:02:02Z</time>
      </trkpt>
      <trkpt lat="48.60828" lon="6.39699">
        <ele>280</ele>
        <time>2011-06-18T03:02:16Z</time>
      </trkpt>
      <trkpt lat="48.60888" lon="6.39648">
        <ele>289</ele>
        <time>2011-06-18T03:03:00Z</time>
      </trkpt>
      <trkpt lat="48.60984" lon="6.39604">
        <ele>300</ele>
        <time>2011-06-18T03:03:57Z</time>
      </trkpt>
      <trkpt lat="48.61044" lon="6.39562">
        <ele>303</ele>
        <time>2011-06-18T03:04:20Z</time>
      </trkpt>
      <trkpt lat="48.61122" lon="6.39497">
        <ele>308</ele>
        <time>2011-06-18T03:04:50Z</time>
      </trkpt>
      <trkpt lat="48.61204" lon="6.39418">
        <ele>305</ele>
        <time>2011-06-18T03:05:03Z</time>
      </trkpt>
      <trkpt lat="48.61333" lon="6.39319">
        <ele>296</ele>
        <time>2011-06-18T03:05:22Z</time>
      </trkpt>
      <trkpt lat="48.61518" lon="6.39214">
        <ele>288</ele>
        <time>2011-06-18T03:05:49Z</time>
      </trkpt>
      <trkpt lat="48.61642" lon="6.39131">
        <ele>283</ele>
        <time>2011-06-18T03:06:07Z</time>
      </trkpt>
      <trkpt lat="48.6168" lon="6.39097">
        <ele>281</ele>
        <time>2011-06-18T03:06:13Z</time>
      </trkpt>
      <trkpt lat="48.61685" lon="6.39177">
        <ele>279</ele>
        <time>2011-06-18T03:06:20Z</time>
      </trkpt>
      <trkpt lat="48.61681" lon="6.39206">
        <ele>278</ele>
        <time>2011-06-18T03:06:22Z</time>
      </trkpt>
      <trkpt lat="48.61665" lon="6.39246">
        <ele>277</ele>
        <time>2011-06-18T03:06:26Z</time>
      </trkpt>
      <trkpt lat="48.6163" lon="6.39293">
        <ele>276</ele>
        <time>2011-06-18T03:06:33Z</time>
      </trkpt>
      <trkpt lat="48.61621" lon="6.39326">
        <ele>274</ele>
        <time>2011-06-18T03:06:36Z</time>
      </trkpt>
      <trkpt lat="48.61626" lon="6.39426">
        <ele>268</ele>
        <time>2011-06-18T03:06:45Z</time>
      </trkpt>
      <trkpt lat="48.61636" lon="6.3947">
        <ele>266</ele>
        <time>2011-06-18T03:06:49Z</time>
      </trkpt>
      <trkpt lat="48.61679" lon="6.39562">
        <ele>260</ele>
        <time>2011-06-18T03:06:59Z</time>
      </trkpt>
      <trkpt lat="48.61699" lon="6.39589">
        <ele>259</ele>
        <time>2011-06-18T03:07:02Z</time>
      </trkpt>
      <trkpt lat="48.61727" lon="6.39603">
        <ele>256</ele>
        <time>2011-06-18T03:07:06Z</time>
      </trkpt>
      <trkpt lat="48.61799" lon="6.39593">
        <ele>250</ele>
        <time>2011-06-18T03:07:16Z</time>
      </trkpt>
      <trkpt lat="48.61811" lon="6.39599">
        <ele>249</ele>
        <time>2011-06-18T03:07:18Z</time>
      </trkpt>
      <trkpt lat="48.61833" lon="6.39626">
        <ele>248</ele>
        <time>2011-06-18T03:07:21Z</time>
      </trkpt>
      <trkpt lat="48.61843" lon="6.39643">
        <ele>248</ele>
        <time>2011-06-18T03:07:23Z</time>
      </trkpt>
      <trkpt lat="48.61921" lon="6.39836">
        <ele>243</ele>
        <time>2011-06-18T03:07:43Z</time>
      </trkpt>
      <trkpt lat="48.61972" lon="6.39929">
        <ele>240</ele>
        <time>2011-06-18T03:07:54Z</time>
      </trkpt>
      <trkpt lat="48.61996" lon="6.39957">
        <ele>239</ele>
        <time>2011-06-18T03:07:58Z</time>
      </trkpt>
      <trkpt lat="48.62031" lon="6.39988">
        <ele>237</ele>
        <time>2011-06-18T03:08:03Z</time>
      </trkpt>
      <trkpt lat="48.62092" lon="6.40116">
        <ele>234</ele>
        <time>2011-06-18T03:08:17Z</time>
      </trkpt>
      <trkpt lat="48.62121" lon="6.40156">
        <ele>233</ele>
        <time>2011-06-18T03:08:23Z</time>
      </trkpt>
      <trkpt lat="48.62186" lon="6.40242">
        <ele>231</ele>
        <time>2011-06-18T03:08:34Z</time>
      </trkpt>
      <trkpt lat="48.62225" lon="6.40281">
        <ele>231</ele>
        <time>2011-06-18T03:08:40Z</time>
      </trkpt>
      <trkpt lat="48.62242" lon="6.40288">
        <ele>231</ele>
        <time>2011-06-18T03:08:43Z</time>
      </trkpt>
      <trkpt lat="48.6231" lon="6.40265">
        <ele>231</ele>
        <time>2011-06-18T03:08:52Z</time>
      </trkpt>
      <trkpt lat="48.62427" lon="6.40268">
        <ele>235</ele>
        <time>2011-06-18T03:09:24Z</time>
      </trkpt>
      <trkpt lat="48.6245" lon="6.40264">
        <ele>236</ele>
        <time>2011-06-18T03:09:31Z</time>
      </trkpt>
      <trkpt lat="48.62495" lon="6.40244">
        <ele>238</ele>
        <time>2011-06-18T03:09:46Z</time>
      </trkpt>
      <trkpt lat="48.62566" lon="6.40193">
        <ele>242</ele>
        <time>2011-06-18T03:10:12Z</time>
      </trkpt>
      <trkpt lat="48.62587" lon="6.40189">
        <ele>241</ele>
        <time>2011-06-18T03:10:14Z</time>
      </trkpt>
      <trkpt lat="48.62614" lon="6.40226">
        <ele>240</ele>
        <time>2011-06-18T03:10:19Z</time>
      </trkpt>
      <trkpt lat="48.62651" lon="6.40294">
        <ele>239</ele>
        <time>2011-06-18T03:10:27Z</time>
      </trkpt>
      <trkpt lat="48.62665" lon="6.40302">
        <ele>238</ele>
        <time>2011-06-18T03:10:29Z</time>
      </trkpt>
      <trkpt lat="48.62678" lon="6.40302">
        <ele>237</ele>
        <time>2011-06-18T03:10:31Z</time>
      </trkpt>
      <trkpt lat="48.62696" lon="6.40295">
        <ele>237</ele>
        <time>2011-06-18T03:10:33Z</time>
      </trkpt>
      <trkpt lat="48.62712" lon="6.40281">
        <ele>236</ele>
        <time>2011-06-18T03:10:36Z</time>
      </trkpt>
      <trkpt lat="48.6282" lon="6.40172">
        <ele>232</ele>
        <time>2011-06-18T03:10:53Z</time>
      </trkpt>
      <trkpt lat="48.62834" lon="6.40163">
        <ele>231</ele>
        <time>2011-06-18T03:10:55Z</time>
      </trkpt>
      <trkpt lat="48.6285" lon="6.4016">
        <ele>230</ele>
        <time>2011-06-18T03:10:57Z</time>
      </trkpt>
      <trkpt lat="48.62863" lon="6.40163">
        <ele>230</ele>
        <time>2011-06-18T03:10:59Z</time>
      </trkpt>
      <trkpt lat="48.6288" lon="6.40176">
        <ele>229</ele>
        <time>2011-06-18T03:11:02Z</time>
      </trkpt>
      <trkpt lat="48.62981" lon="6.4028">
        <ele>225</ele>
        <time>2011-06-18T03:11:18Z</time>
      </trkpt>
      <trkpt lat="48.63047" lon="6.40328">
        <ele>220</ele>
        <time>2011-06-18T03:11:28Z</time>
      </trkpt>
      <trkpt lat="48.63075" lon="6.4034">
        <ele>219</ele>
        <time>2011-06-18T03:11:32Z</time>
      </trkpt>
      <trkpt lat="48.63108" lon="6.40346">
        <ele>217</ele>
        <time>2011-06-18T03:11:36Z</time>
      </trkpt>
      <trkpt lat="48.63166" lon="6.4033">
        <ele>215</ele>
        <time>2011-06-18T03:11:44Z</time>
      </trkpt>
      <trkpt lat="48.6318" lon="6.40345">
        <ele>215</ele>
        <time>2011-06-18T03:11:46Z</time>
      </trkpt>
      <trkpt lat="48.63174" lon="6.40393">
        <ele>215</ele>
        <time>2011-06-18T03:11:50Z</time>
      </trkpt>
      <trkpt lat="48.63183" lon="6.40442">
        <ele>215</ele>
        <time>2011-06-18T03:11:55Z</time>
      </trkpt>
      <trkpt lat="48.63198" lon="6.40469">
        <ele>215</ele>
        <time>2011-06-18T03:11:58Z</time>
      </trkpt>
      <trkpt lat="48.63238" lon="6.40521">
        <ele>218</ele>
        <time>2011-06-18T03:12:20Z</time>
      </trkpt>
      <trkpt lat="48.63252" lon="6.40559">
        <ele>220</ele>
        <time>2011-06-18T03:12:33Z</time>
      </trkpt>
      <trkpt lat="48.63256" lon="6.40602">
        <ele>223</ele>
        <time>2011-06-18T03:12:45Z</time>
      </trkpt>
      <trkpt lat="48.6325" lon="6.40666">
        <ele>224</ele>
        <time>2011-06-18T03:12:55Z</time>
      </trkpt>
      <trkpt lat="48.6325" lon="6.40666">
        <ele>224</ele>
        <time>2011-06-18T03:12:56Z</time>
      </trkpt>
      <trkpt lat="48.63255" lon="6.40759">
        <ele>223</ele>
        <time>2011-06-18T03:13:04Z</time>
      </trkpt>
      <trkpt lat="48.63274" lon="6.40887">
        <ele>222</ele>
        <time>2011-06-18T03:13:15Z</time>
      </trkpt>
      <trkpt lat="48.63305" lon="6.40867">
        <ele>221</ele>
        <time>2011-06-18T03:13:20Z</time>
      </trkpt>
      <trkpt lat="48.63429" lon="6.40829">
        <ele>218</ele>
        <time>2011-06-18T03:13:37Z</time>
      </trkpt>
      <trkpt lat="48.63454" lon="6.40817">
        <ele>217</ele>
        <time>2011-06-18T03:13:40Z</time>
      </trkpt>
      <trkpt lat="48.63469" lon="6.40801">
        <ele>216</ele>
        <time>2011-06-18T03:13:43Z</time>
      </trkpt>
      <trkpt lat="48.63487" lon="6.40771">
        <ele>215</ele>
        <time>2011-06-18T03:13:46Z</time>
      </trkpt>
      <trkpt lat="48.63493" lon="6.40749">
        <ele>214</ele>
        <time>2011-06-18T03:13:48Z</time>
      </trkpt>
      <trkpt lat="48.63502" lon="6.40673">
        <ele>213</ele>
        <time>2011-06-18T03:13:55Z</time>
      </trkpt>
      <trkpt lat="48.63507" lon="6.40657">
        <ele>213</ele>
        <time>2011-06-18T03:13:57Z</time>
      </trkpt>
      <trkpt lat="48.63515" lon="6.40646">
        <ele>213</ele>
        <time>2011-06-18T03:13:59Z</time>
      </trkpt>
      <trkpt lat="48.63558" lon="6.406">
        <ele>213</ele>
        <time>2011-06-18T03:14:07Z</time>
      </trkpt>
      <trkpt lat="48.63653" lon="6.40513">
        <ele>214</ele>
        <time>2011-06-18T03:14:24Z</time>
      </trkpt>
      <trkpt lat="48.63827" lon="6.40394">
        <ele>218</ele>
        <time>2011-06-18T03:15:06Z</time>
      </trkpt>
      <trkpt lat="48.63838" lon="6.40364">
        <ele>216</ele>
        <time>2011-06-18T03:15:09Z</time>
      </trkpt>
      <trkpt lat="48.63904" lon="6.40291">
        <ele>213</ele>
        <time>2011-06-18T03:15:20Z</time>
      </trkpt>
      <trkpt lat="48.63913" lon="6.40255">
        <ele>212</ele>
        <time>2011-06-18T03:15:23Z</time>
      </trkpt>
      <trkpt lat="48.63899" lon="6.40056">
        <ele>212</ele>
        <time>2011-06-18T03:15:41Z</time>
      </trkpt>
      <trkpt lat="48.63893" lon="6.40016">
        <ele>212</ele>
        <time>2011-06-18T03:15:48Z</time>
      </trkpt>
      <trkpt lat="48.6386" lon="6.39886">
        <ele>216</ele>
        <time>2011-06-18T03:16:12Z</time>
      </trkpt>
      <trkpt lat="48.63838" lon="6.39826">
        <ele>215</ele>
        <time>2011-06-18T03:16:19Z</time>
      </trkpt>
      <trkpt lat="48.63423" lon="6.39359">
        <ele>210</ele>
        <time>2011-06-18T03:17:28Z</time>
      </trkpt>
      <trkpt lat="48.63391" lon="6.39312">
        <ele>210</ele>
        <time>2011-06-18T03:17:34Z</time>
      </trkpt>
      <trkpt lat="48.63369" lon="6.39252">
        <ele>210</ele>
        <time>2011-06-18T03:17:40Z</time>
      </trkpt>
      <trkpt lat="48.63302" lon="6.38912">
        <ele>210</ele>
        <time>2011-06-18T03:18:11Z</time>
      </trkpt>
      <trkpt lat="48.63212" lon="6.38523">
        <ele>217</ele>
        <time>2011-06-18T03:19:15Z</time>
      </trkpt>
      <trkpt lat="48.63197" lon="6.38419">
        <ele>216</ele>
        <time>2011-06-18T03:19:25Z</time>
      </trkpt>
      <trkpt lat="48.63184" lon="6.3798">
        <ele>212</ele>
        <time>2011-06-18T03:20:04Z</time>
      </trkpt>
      <trkpt lat="48.63197" lon="6.37589">
        <ele>213</ele>
        <time>2011-06-18T03:20:42Z</time>
      </trkpt>
      <trkpt lat="48.6319" lon="6.3752">
        <ele>213</ele>
        <time>2011-06-18T03:20:48Z</time>
      </trkpt>
      <trkpt lat="48.63156" lon="6.37322">
        <ele>213</ele>
        <time>2011-06-18T03:21:06Z</time>
      </trkpt>
      <trkpt lat="48.63155" lon="6.37227">
        <ele>211</ele>
        <time>2011-06-18T03:21:15Z</time>
      </trkpt>
      <trkpt lat="48.63152" lon="6.37204">
        <ele>211</ele>
        <time>2011-06-18T03:21:17Z</time>
      </trkpt>
      <trkpt lat="48.6312" lon="6.37091">
        <ele>209</ele>
        <time>2011-06-18T03:21:28Z</time>
      </trkpt>
      <trkpt lat="48.63004" lon="6.36746">
        <ele>205</ele>
        <time>2011-06-18T03:22:02Z</time>
      </trkpt>
      <trkpt lat="48.62952" lon="6.36563">
        <ele>204</ele>
        <time>2011-06-18T03:22:19Z</time>
      </trkpt>
      <trkpt lat="48.62933" lon="6.3648">
        <ele>204</ele>
        <time>2011-06-18T03:22:29Z</time>
      </trkpt>
      <trkpt lat="48.62878" lon="6.36155">
        <ele>206</ele>
        <time>2011-06-18T03:23:05Z</time>
      </trkpt>
      <trkpt lat="48.62833" lon="6.35993">
        <ele>204</ele>
        <time>2011-06-18T03:23:20Z</time>
      </trkpt>
      <trkpt lat="48.62803" lon="6.35838">
        <ele>206</ele>
        <time>2011-06-18T03:23:43Z</time>
      </trkpt>
      <trkpt lat="48.62788" lon="6.3578">
        <ele>206</ele>
        <time>2011-06-18T03:23:51Z</time>
      </trkpt>
      <trkpt lat="48.62725" lon="6.356">
        <ele>209</ele>
        <time>2011-06-18T03:24:18Z</time>
      </trkpt>
      <trkpt lat="48.62714" lon="6.35543">
        <ele>209</ele>
        <time>2011-06-18T03:24:25Z</time>
      </trkpt>
      <trkpt lat="48.62704" lon="6.35446">
        <ele>210</ele>
        <time>2011-06-18T03:24:36Z</time>
      </trkpt>
      <trkpt lat="48.62702" lon="6.35204">
        <ele>210</ele>
        <time>2011-06-18T03:24:57Z</time>
      </trkpt>
      <trkpt lat="48.62694" lon="6.35122">
        <ele>210</ele>
        <time>2011-06-18T03:25:05Z</time>
      </trkpt>
      <trkpt lat="48.62655" lon="6.34952">
        <ele>210</ele>
        <time>2011-06-18T03:25:21Z</time>
      </trkpt>
      <trkpt lat="48.62637" lon="6.34888">
        <ele>210</ele>
        <time>2011-06-18T03:25:27Z</time>
      </trkpt>
      <trkpt lat="48.62614" lon="6.34824">
        <ele>210</ele>
        <time>2011-06-18T03:25:33Z</time>
      </trkpt>
      <trkpt lat="48.62651" lon="6.34795">
        <ele>209</ele>
        <time>2011-06-18T03:25:39Z</time>
      </trkpt>
      <trkpt lat="48.6271" lon="6.3473">
        <ele>208</ele>
        <time>2011-06-18T03:25:48Z</time>
      </trkpt>
      <trkpt lat="48.62786" lon="6.34737">
        <ele>206</ele>
        <time>2011-06-18T03:25:59Z</time>
      </trkpt>
      <trkpt lat="48.62829" lon="6.34756">
        <ele>206</ele>
        <time>2011-06-18T03:26:05Z</time>
      </trkpt>
      <trkpt lat="48.62953" lon="6.34681">
        <ele>210</ele>
        <time>2011-06-18T03:26:38Z</time>
      </trkpt>
      <trkpt lat="48.62951" lon="6.34649">
        <ele>210</ele>
        <time>2011-06-18T03:26:42Z</time>
      </trkpt>
      <trkpt lat="48.62889" lon="6.34437">
        <ele>211</ele>
        <time>2011-06-18T03:27:06Z</time>
      </trkpt>
      <trkpt lat="48.62854" lon="6.34337">
        <ele>210</ele>
        <time>2011-06-18T03:27:16Z</time>
      </trkpt>
      <trkpt lat="48.62849" lon="6.34289">
        <ele>210</ele>
        <time>2011-06-18T03:27:20Z</time>
      </trkpt>
      <trkpt lat="48.62852" lon="6.34253">
        <ele>210</ele>
        <time>2011-06-18T03:27:23Z</time>
      </trkpt>
      <trkpt lat="48.62961" lon="6.33773">
        <ele>210</ele>
        <time>2011-06-18T03:28:08Z</time>
      </trkpt>
      <trkpt lat="48.63093" lon="6.33219">
        <ele>213</ele>
        <time>2011-06-18T03:29:12Z</time>
      </trkpt>
      <trkpt lat="48.63093" lon="6.33219">
        <ele>213</ele>
        <time>2011-06-18T03:29:13Z</time>
      </trkpt>
      <trkpt lat="48.63187" lon="6.32809">
        <ele>210</ele>
        <time>2011-06-18T03:29:51Z</time>
      </trkpt>
      <trkpt lat="48.63229" lon="6.32677">
        <ele>208</ele>
        <time>2011-06-18T03:30:04Z</time>
      </trkpt>
      <trkpt lat="48.63309" lon="6.3245">
        <ele>210</ele>
        <time>2011-06-18T03:30:35Z</time>
      </trkpt>
      <trkpt lat="48.63309" lon="6.3244">
        <ele>209</ele>
        <time>2011-06-18T03:30:36Z</time>
      </trkpt>
      <trkpt lat="48.63369" lon="6.32311">
        <ele>209</ele>
        <time>2011-06-18T03:30:50Z</time>
      </trkpt>
      <trkpt lat="48.63382" lon="6.32278">
        <ele>208</ele>
        <time>2011-06-18T03:30:53Z</time>
      </trkpt>
      <trkpt lat="48.63401" lon="6.32211">
        <ele>208</ele>
        <time>2011-06-18T03:31:00Z</time>
      </trkpt>
      <trkpt lat="48.63402" lon="6.32185">
        <ele>208</ele>
        <time>2011-06-18T03:31:02Z</time>
      </trkpt>
      <trkpt lat="48.63415" lon="6.32113">
        <ele>208</ele>
        <time>2011-06-18T03:31:08Z</time>
      </trkpt>
      <trkpt lat="48.63523" lon="6.31582">
        <ele>207</ele>
        <time>2011-06-18T03:31:58Z</time>
      </trkpt>
      <trkpt lat="48.63538" lon="6.31545">
        <ele>208</ele>
        <time>2011-06-18T03:32:05Z</time>
      </trkpt>
      <trkpt lat="48.63564" lon="6.31503">
        <ele>209</ele>
        <time>2011-06-18T03:32:16Z</time>
      </trkpt>
      <trkpt lat="48.63575" lon="6.31495">
        <ele>209</ele>
        <time>2011-06-18T03:32:19Z</time>
      </trkpt>
      <trkpt lat="48.63594" lon="6.31452">
        <ele>211</ele>
        <time>2011-06-18T03:32:29Z</time>
      </trkpt>
      <trkpt lat="48.63597" lon="6.31431">
        <ele>211</ele>
        <time>2011-06-18T03:32:33Z</time>
      </trkpt>
      <trkpt lat="48.63619" lon="6.31377">
        <ele>213</ele>
        <time>2011-06-18T03:32:45Z</time>
      </trkpt>
      <trkpt lat="48.63637" lon="6.31311">
        <ele>215</ele>
        <time>2011-06-18T03:32:58Z</time>
      </trkpt>
      <trkpt lat="48.63649" lon="6.31259">
        <ele>213</ele>
        <time>2011-06-18T03:33:03Z</time>
      </trkpt>
      <trkpt lat="48.6365" lon="6.31235">
        <ele>213</ele>
        <time>2011-06-18T03:33:05Z</time>
      </trkpt>
      <trkpt lat="48.63644" lon="6.31197">
        <ele>212</ele>
        <time>2011-06-18T03:33:09Z</time>
      </trkpt>
      <trkpt lat="48.63631" lon="6.31166">
        <ele>212</ele>
        <time>2011-06-18T03:33:12Z</time>
      </trkpt>
      <trkpt lat="48.63478" lon="6.31064">
        <ele>205</ele>
        <time>2011-06-18T03:33:34Z</time>
      </trkpt>
      <trkpt lat="48.63445" lon="6.31097">
        <ele>204</ele>
        <time>2011-06-18T03:33:40Z</time>
      </trkpt>
      <trkpt lat="48.63434" lon="6.31114">
        <ele>204</ele>
        <time>2011-06-18T03:33:42Z</time>
      </trkpt>
      <trkpt lat="48.63388" lon="6.31229">
        <ele>204</ele>
        <time>2011-06-18T03:33:54Z</time>
      </trkpt>
      <trkpt lat="48.63387" lon="6.31251">
        <ele>204</ele>
        <time>2011-06-18T03:33:56Z</time>
      </trkpt>
      <trkpt lat="48.63393" lon="6.31282">
        <ele>204</ele>
        <time>2011-06-18T03:34:01Z</time>
      </trkpt>
      <trkpt lat="48.63376" lon="6.31327">
        <ele>205</ele>
        <time>2011-06-18T03:34:07Z</time>
      </trkpt>
    </trkseg>
  </trk>
</gpx>